<?xml version="1.0" encoding="UTF-8" standalone="no" ?>
<gpx xmlns="http://www.topografix.com/GPX/1/1" xmlns:xsi="http://www.w3.org/2001/XMLSchema-instance" xsi:schemaLocation="http://www.topografix.com/GPX/1/1 http://www.topografix.com/GPX/1/1/gpx.xsd" version="1.1" creator="VisuGPX - https://www.visugpx.com">
  <metadata>
    <name>2021-05-28  Randonnée Retournemer.</name>
    <desc><![CDATA[Retournemer-Col de Thiaville-le Hohneck-Col de la Schlucht-le Collet-Balveurche-roche du Diable.]]></desc>
  </metadata>
  <trk>
    <name><![CDATA[2021-05-28 16:42:25]]></name>
    <trkseg>
      <trkpt lat="48.05833" lon="6.98543">
        <ele>797.17</ele>
        <time>2021-05-28T07:33:43Z</time>
      </trkpt>
      <trkpt lat="48.05838" lon="6.98575">
        <ele>799.14</ele>
        <time>2021-05-28T07:35:53Z</time>
      </trkpt>
      <trkpt lat="48.05865" lon="6.9864">
        <ele>805.62</ele>
        <time>2021-05-28T07:36:47Z</time>
      </trkpt>
      <trkpt lat="48.05867" lon="6.98667">
        <ele>806.89</ele>
        <time>2021-05-28T07:38:57Z</time>
      </trkpt>
      <trkpt lat="48.0587" lon="6.98693">
        <ele>809.45</ele>
        <time>2021-05-28T07:39:20Z</time>
      </trkpt>
      <trkpt lat="48.05846" lon="6.98726">
        <ele>812.35</ele>
        <time>2021-05-28T07:39:55Z</time>
      </trkpt>
      <trkpt lat="48.05829" lon="6.98754">
        <ele>815.19</ele>
        <time>2021-05-28T07:40:28Z</time>
      </trkpt>
      <trkpt lat="48.05811" lon="6.98771">
        <ele>817.18</ele>
        <time>2021-05-28T07:40:55Z</time>
      </trkpt>
      <trkpt lat="48.05793" lon="6.98792">
        <ele>820.79</ele>
        <time>2021-05-28T07:41:24Z</time>
      </trkpt>
      <trkpt lat="48.05774" lon="6.98811">
        <ele>823.13</ele>
        <time>2021-05-28T07:41:51Z</time>
      </trkpt>
      <trkpt lat="48.05748" lon="6.98828">
        <ele>827.65</ele>
        <time>2021-05-28T07:42:28Z</time>
      </trkpt>
      <trkpt lat="48.05735" lon="6.98848">
        <ele>829.46</ele>
        <time>2021-05-28T07:42:53Z</time>
      </trkpt>
      <trkpt lat="48.05714" lon="6.98873">
        <ele>831.87</ele>
        <time>2021-05-28T07:43:22Z</time>
      </trkpt>
      <trkpt lat="48.05701" lon="6.98898">
        <ele>834.62</ele>
        <time>2021-05-28T07:43:45Z</time>
      </trkpt>
      <trkpt lat="48.05673" lon="6.98905">
        <ele>837.91</ele>
        <time>2021-05-28T07:44:19Z</time>
      </trkpt>
      <trkpt lat="48.05647" lon="6.98919">
        <ele>841.4</ele>
        <time>2021-05-28T07:44:58Z</time>
      </trkpt>
      <trkpt lat="48.05626" lon="6.98943">
        <ele>844.92</ele>
        <time>2021-05-28T07:45:32Z</time>
      </trkpt>
      <trkpt lat="48.05608" lon="6.98976">
        <ele>847.86</ele>
        <time>2021-05-28T07:46:10Z</time>
      </trkpt>
      <trkpt lat="48.0559" lon="6.99032">
        <ele>851.19</ele>
        <time>2021-05-28T07:46:43Z</time>
      </trkpt>
      <trkpt lat="48.05585" lon="6.99057">
        <ele>852.69</ele>
        <time>2021-05-28T07:47:10Z</time>
      </trkpt>
      <trkpt lat="48.05571" lon="6.99085">
        <ele>855.19</ele>
        <time>2021-05-28T07:47:36Z</time>
      </trkpt>
      <trkpt lat="48.05555" lon="6.99112">
        <ele>858.79</ele>
        <time>2021-05-28T07:48:04Z</time>
      </trkpt>
      <trkpt lat="48.0554" lon="6.99136">
        <ele>863.58</ele>
        <time>2021-05-28T07:48:40Z</time>
      </trkpt>
      <trkpt lat="48.05517" lon="6.99166">
        <ele>867.58</ele>
        <time>2021-05-28T07:49:11Z</time>
      </trkpt>
      <trkpt lat="48.05493" lon="6.99173">
        <ele>869.58</ele>
        <time>2021-05-28T07:49:41Z</time>
      </trkpt>
      <trkpt lat="48.05468" lon="6.99188">
        <ele>871.86</ele>
        <time>2021-05-28T07:50:15Z</time>
      </trkpt>
      <trkpt lat="48.05446" lon="6.99218">
        <ele>874.69</ele>
        <time>2021-05-28T07:50:51Z</time>
      </trkpt>
      <trkpt lat="48.05428" lon="6.99242">
        <ele>877.95</ele>
        <time>2021-05-28T07:51:17Z</time>
      </trkpt>
      <trkpt lat="48.05411" lon="6.99258">
        <ele>881.32</ele>
        <time>2021-05-28T07:51:47Z</time>
      </trkpt>
      <trkpt lat="48.05382" lon="6.99282">
        <ele>885.25</ele>
        <time>2021-05-28T07:52:22Z</time>
      </trkpt>
      <trkpt lat="48.05351" lon="6.9931">
        <ele>889.45</ele>
        <time>2021-05-28T07:53:00Z</time>
      </trkpt>
      <trkpt lat="48.05335" lon="6.99335">
        <ele>892</ele>
        <time>2021-05-28T07:53:31Z</time>
      </trkpt>
      <trkpt lat="48.05319" lon="6.99369">
        <ele>895.66</ele>
        <time>2021-05-28T07:54:02Z</time>
      </trkpt>
      <trkpt lat="48.05307" lon="6.99397">
        <ele>899.67</ele>
        <time>2021-05-28T07:54:30Z</time>
      </trkpt>
      <trkpt lat="48.053" lon="6.99433">
        <ele>903.83</ele>
        <time>2021-05-28T07:55:03Z</time>
      </trkpt>
      <trkpt lat="48.05279" lon="6.99468">
        <ele>909.49</ele>
        <time>2021-05-28T07:55:42Z</time>
      </trkpt>
      <trkpt lat="48.05266" lon="6.99491">
        <ele>915.31</ele>
        <time>2021-05-28T07:56:25Z</time>
      </trkpt>
      <trkpt lat="48.05252" lon="6.9951">
        <ele>918.74</ele>
        <time>2021-05-28T07:56:46Z</time>
      </trkpt>
      <trkpt lat="48.05235" lon="6.99537">
        <ele>921.67</ele>
        <time>2021-05-28T07:57:13Z</time>
      </trkpt>
      <trkpt lat="48.05219" lon="6.99565">
        <ele>926.91</ele>
        <time>2021-05-28T07:57:45Z</time>
      </trkpt>
      <trkpt lat="48.05208" lon="6.99566">
        <ele>926.65</ele>
        <time>2021-05-28T07:58:42Z</time>
      </trkpt>
      <trkpt lat="48.0521" lon="6.99558">
        <ele>926.42</ele>
        <time>2021-05-28T07:59:38Z</time>
      </trkpt>
      <trkpt lat="48.05205" lon="6.99555">
        <ele>926.02</ele>
        <time>2021-05-28T08:00:27Z</time>
      </trkpt>
      <trkpt lat="48.05216" lon="6.99564">
        <ele>926.39</ele>
        <time>2021-05-28T08:01:35Z</time>
      </trkpt>
      <trkpt lat="48.05211" lon="6.99565">
        <ele>926.27</ele>
        <time>2021-05-28T08:02:32Z</time>
      </trkpt>
      <trkpt lat="48.05188" lon="6.99568">
        <ele>929.81</ele>
        <time>2021-05-28T08:03:11Z</time>
      </trkpt>
      <trkpt lat="48.05173" lon="6.99582">
        <ele>934.37</ele>
        <time>2021-05-28T08:03:45Z</time>
      </trkpt>
      <trkpt lat="48.05151" lon="6.99592">
        <ele>939.02</ele>
        <time>2021-05-28T08:04:19Z</time>
      </trkpt>
      <trkpt lat="48.05131" lon="6.99586">
        <ele>943.55</ele>
        <time>2021-05-28T08:04:49Z</time>
      </trkpt>
      <trkpt lat="48.0512" lon="6.99547">
        <ele>949.83</ele>
        <time>2021-05-28T08:05:29Z</time>
      </trkpt>
      <trkpt lat="48.05106" lon="6.99545">
        <ele>955.85</ele>
        <time>2021-05-28T08:06:16Z</time>
      </trkpt>
      <trkpt lat="48.05097" lon="6.99576">
        <ele>958.05</ele>
        <time>2021-05-28T08:06:45Z</time>
      </trkpt>
      <trkpt lat="48.05078" lon="6.996">
        <ele>960.95</ele>
        <time>2021-05-28T08:07:14Z</time>
      </trkpt>
      <trkpt lat="48.05077" lon="6.99625">
        <ele>966.26</ele>
        <time>2021-05-28T08:07:55Z</time>
      </trkpt>
      <trkpt lat="48.05059" lon="6.99655">
        <ele>972.68</ele>
        <time>2021-05-28T08:08:35Z</time>
      </trkpt>
      <trkpt lat="48.05057" lon="6.9968">
        <ele>977.77</ele>
        <time>2021-05-28T08:09:05Z</time>
      </trkpt>
      <trkpt lat="48.05071" lon="6.99698">
        <ele>982.25</ele>
        <time>2021-05-28T08:09:39Z</time>
      </trkpt>
      <trkpt lat="48.05065" lon="6.99721">
        <ele>985.64</ele>
        <time>2021-05-28T08:10:10Z</time>
      </trkpt>
      <trkpt lat="48.05056" lon="6.99747">
        <ele>990.54</ele>
        <time>2021-05-28T08:10:47Z</time>
      </trkpt>
      <trkpt lat="48.05055" lon="6.99767">
        <ele>994.55</ele>
        <time>2021-05-28T08:11:10Z</time>
      </trkpt>
      <trkpt lat="48.05076" lon="6.99785">
        <ele>1001.14</ele>
        <time>2021-05-28T08:11:54Z</time>
      </trkpt>
      <trkpt lat="48.05092" lon="6.9981">
        <ele>1006.17</ele>
        <time>2021-05-28T08:12:30Z</time>
      </trkpt>
      <trkpt lat="48.05071" lon="6.99831">
        <ele>1009.92</ele>
        <time>2021-05-28T08:13:02Z</time>
      </trkpt>
      <trkpt lat="48.0508" lon="6.99834">
        <ele>1009.57</ele>
        <time>2021-05-28T08:13:42Z</time>
      </trkpt>
      <trkpt lat="48.05073" lon="6.99824">
        <ele>1009.59</ele>
        <time>2021-05-28T08:14:32Z</time>
      </trkpt>
      <trkpt lat="48.05076" lon="6.99816">
        <ele>1009.45</ele>
        <time>2021-05-28T08:15:30Z</time>
      </trkpt>
      <trkpt lat="48.0508" lon="6.99829">
        <ele>1009.71</ele>
        <time>2021-05-28T08:16:40Z</time>
      </trkpt>
      <trkpt lat="48.05082" lon="6.99843">
        <ele>1012.31</ele>
        <time>2021-05-28T08:17:12Z</time>
      </trkpt>
      <trkpt lat="48.05074" lon="6.9987">
        <ele>1016.67</ele>
        <time>2021-05-28T08:17:43Z</time>
      </trkpt>
      <trkpt lat="48.05069" lon="6.99896">
        <ele>1019.72</ele>
        <time>2021-05-28T08:18:16Z</time>
      </trkpt>
      <trkpt lat="48.0505" lon="6.99915">
        <ele>1025.35</ele>
        <time>2021-05-28T08:18:54Z</time>
      </trkpt>
      <trkpt lat="48.05041" lon="6.9994">
        <ele>1030.51</ele>
        <time>2021-05-28T08:19:25Z</time>
      </trkpt>
      <trkpt lat="48.0504" lon="6.99968">
        <ele>1034.51</ele>
        <time>2021-05-28T08:19:55Z</time>
      </trkpt>
      <trkpt lat="48.05037" lon="7.00011">
        <ele>1039.94</ele>
        <time>2021-05-28T08:20:34Z</time>
      </trkpt>
      <trkpt lat="48.05034" lon="7.00049">
        <ele>1042.62</ele>
        <time>2021-05-28T08:21:07Z</time>
      </trkpt>
      <trkpt lat="48.05039" lon="7.00087">
        <ele>1048.21</ele>
        <time>2021-05-28T08:21:46Z</time>
      </trkpt>
      <trkpt lat="48.05043" lon="7.00114">
        <ele>1051.69</ele>
        <time>2021-05-28T08:22:22Z</time>
      </trkpt>
      <trkpt lat="48.05041" lon="7.00108">
        <ele>1052.38</ele>
        <time>2021-05-28T08:23:34Z</time>
      </trkpt>
      <trkpt lat="48.0504" lon="7.00144">
        <ele>1053.94</ele>
        <time>2021-05-28T08:24:01Z</time>
      </trkpt>
      <trkpt lat="48.05031" lon="7.00155">
        <ele>1054.81</ele>
        <time>2021-05-28T08:24:59Z</time>
      </trkpt>
      <trkpt lat="48.05037" lon="7.00169">
        <ele>1057.14</ele>
        <time>2021-05-28T08:26:44Z</time>
      </trkpt>
      <trkpt lat="48.05037" lon="7.00199">
        <ele>1059.52</ele>
        <time>2021-05-28T08:27:11Z</time>
      </trkpt>
      <trkpt lat="48.05038" lon="7.00227">
        <ele>1063.06</ele>
        <time>2021-05-28T08:27:35Z</time>
      </trkpt>
      <trkpt lat="48.05042" lon="7.0024">
        <ele>1064.94</ele>
        <time>2021-05-28T08:29:11Z</time>
      </trkpt>
      <trkpt lat="48.05044" lon="7.00234">
        <ele>1065.74</ele>
        <time>2021-05-28T08:34:12Z</time>
      </trkpt>
      <trkpt lat="48.05049" lon="7.00225">
        <ele>1066.54</ele>
        <time>2021-05-28T08:39:44Z</time>
      </trkpt>
      <trkpt lat="48.05043" lon="7.00244">
        <ele>1068.82</ele>
        <time>2021-05-28T08:43:54Z</time>
      </trkpt>
      <trkpt lat="48.05048" lon="7.00271">
        <ele>1072.24</ele>
        <time>2021-05-28T08:44:29Z</time>
      </trkpt>
      <trkpt lat="48.05053" lon="7.00296">
        <ele>1074.36</ele>
        <time>2021-05-28T08:44:59Z</time>
      </trkpt>
      <trkpt lat="48.05043" lon="7.00321">
        <ele>1079.17</ele>
        <time>2021-05-28T08:45:30Z</time>
      </trkpt>
      <trkpt lat="48.05026" lon="7.00349">
        <ele>1082.99</ele>
        <time>2021-05-28T08:46:03Z</time>
      </trkpt>
      <trkpt lat="48.05019" lon="7.00375">
        <ele>1087.45</ele>
        <time>2021-05-28T08:46:40Z</time>
      </trkpt>
      <trkpt lat="48.05012" lon="7.00404">
        <ele>1093.49</ele>
        <time>2021-05-28T08:47:17Z</time>
      </trkpt>
      <trkpt lat="48.05008" lon="7.0043">
        <ele>1098.44</ele>
        <time>2021-05-28T08:47:57Z</time>
      </trkpt>
      <trkpt lat="48.05001" lon="7.00434">
        <ele>1098.7</ele>
        <time>2021-05-28T08:49:24Z</time>
      </trkpt>
      <trkpt lat="48.04984" lon="7.00433">
        <ele>1097.67</ele>
        <time>2021-05-28T08:50:05Z</time>
      </trkpt>
      <trkpt lat="48.04959" lon="7.00442">
        <ele>1097.54</ele>
        <time>2021-05-28T08:50:42Z</time>
      </trkpt>
      <trkpt lat="48.04947" lon="7.00441">
        <ele>1097.65</ele>
        <time>2021-05-28T08:51:23Z</time>
      </trkpt>
      <trkpt lat="48.04945" lon="7.00432">
        <ele>1098.16</ele>
        <time>2021-05-28T08:53:24Z</time>
      </trkpt>
      <trkpt lat="48.04925" lon="7.00435">
        <ele>1097.86</ele>
        <time>2021-05-28T08:54:02Z</time>
      </trkpt>
      <trkpt lat="48.04905" lon="7.00447">
        <ele>1098.15</ele>
        <time>2021-05-28T08:54:36Z</time>
      </trkpt>
      <trkpt lat="48.04879" lon="7.00448">
        <ele>1098.82</ele>
        <time>2021-05-28T08:55:06Z</time>
      </trkpt>
      <trkpt lat="48.04858" lon="7.00452">
        <ele>1098.74</ele>
        <time>2021-05-28T08:55:29Z</time>
      </trkpt>
      <trkpt lat="48.04839" lon="7.00455">
        <ele>1100.09</ele>
        <time>2021-05-28T08:55:52Z</time>
      </trkpt>
      <trkpt lat="48.04808" lon="7.00468">
        <ele>1099.19</ele>
        <time>2021-05-28T08:56:21Z</time>
      </trkpt>
      <trkpt lat="48.04777" lon="7.00475">
        <ele>1099.64</ele>
        <time>2021-05-28T08:56:50Z</time>
      </trkpt>
      <trkpt lat="48.04739" lon="7.00474">
        <ele>1100.61</ele>
        <time>2021-05-28T08:57:24Z</time>
      </trkpt>
      <trkpt lat="48.04713" lon="7.00469">
        <ele>1101.16</ele>
        <time>2021-05-28T08:57:53Z</time>
      </trkpt>
      <trkpt lat="48.0468" lon="7.00458">
        <ele>1100.7</ele>
        <time>2021-05-28T08:58:28Z</time>
      </trkpt>
      <trkpt lat="48.04648" lon="7.00452">
        <ele>1101.49</ele>
        <time>2021-05-28T08:59:00Z</time>
      </trkpt>
      <trkpt lat="48.04631" lon="7.0045">
        <ele>1101.66</ele>
        <time>2021-05-28T08:59:23Z</time>
      </trkpt>
      <trkpt lat="48.04626" lon="7.00425">
        <ele>1101.74</ele>
        <time>2021-05-28T09:00:00Z</time>
      </trkpt>
      <trkpt lat="48.04606" lon="7.00411">
        <ele>1101.73</ele>
        <time>2021-05-28T09:00:41Z</time>
      </trkpt>
      <trkpt lat="48.0458" lon="7.00405">
        <ele>1101.3</ele>
        <time>2021-05-28T09:01:12Z</time>
      </trkpt>
      <trkpt lat="48.04561" lon="7.00392">
        <ele>1102.65</ele>
        <time>2021-05-28T09:01:42Z</time>
      </trkpt>
      <trkpt lat="48.04547" lon="7.00368">
        <ele>1102.47</ele>
        <time>2021-05-28T09:02:11Z</time>
      </trkpt>
      <trkpt lat="48.0453" lon="7.00351">
        <ele>1101.05</ele>
        <time>2021-05-28T09:02:44Z</time>
      </trkpt>
      <trkpt lat="48.04513" lon="7.00333">
        <ele>1101.85</ele>
        <time>2021-05-28T09:03:13Z</time>
      </trkpt>
      <trkpt lat="48.0451" lon="7.00303">
        <ele>1099.85</ele>
        <time>2021-05-28T09:03:50Z</time>
      </trkpt>
      <trkpt lat="48.04491" lon="7.00284">
        <ele>1098.32</ele>
        <time>2021-05-28T09:04:18Z</time>
      </trkpt>
      <trkpt lat="48.04482" lon="7.00253">
        <ele>1098.96</ele>
        <time>2021-05-28T09:04:52Z</time>
      </trkpt>
      <trkpt lat="48.04474" lon="7.00255">
        <ele>1099.4</ele>
        <time>2021-05-28T09:05:48Z</time>
      </trkpt>
      <trkpt lat="48.04464" lon="7.00229">
        <ele>1097.95</ele>
        <time>2021-05-28T09:06:21Z</time>
      </trkpt>
      <trkpt lat="48.04466" lon="7.00208">
        <ele>1098.03</ele>
        <time>2021-05-28T09:07:01Z</time>
      </trkpt>
      <trkpt lat="48.04466" lon="7.00188">
        <ele>1097.93</ele>
        <time>2021-05-28T09:07:35Z</time>
      </trkpt>
      <trkpt lat="48.04452" lon="7.00147">
        <ele>1098.38</ele>
        <time>2021-05-28T09:08:07Z</time>
      </trkpt>
      <trkpt lat="48.0444" lon="7.00096">
        <ele>1097.72</ele>
        <time>2021-05-28T09:08:41Z</time>
      </trkpt>
      <trkpt lat="48.04437" lon="7.00056">
        <ele>1094.4</ele>
        <time>2021-05-28T09:09:21Z</time>
      </trkpt>
      <trkpt lat="48.04427" lon="7.00029">
        <ele>1092.83</ele>
        <time>2021-05-28T09:09:54Z</time>
      </trkpt>
      <trkpt lat="48.04403" lon="6.99996">
        <ele>1092.33</ele>
        <time>2021-05-28T09:10:25Z</time>
      </trkpt>
      <trkpt lat="48.0438" lon="6.99961">
        <ele>1093.63</ele>
        <time>2021-05-28T09:11:01Z</time>
      </trkpt>
      <trkpt lat="48.04354" lon="6.99931">
        <ele>1095.47</ele>
        <time>2021-05-28T09:11:29Z</time>
      </trkpt>
      <trkpt lat="48.04331" lon="6.99896">
        <ele>1095.69</ele>
        <time>2021-05-28T09:11:55Z</time>
      </trkpt>
      <trkpt lat="48.04314" lon="6.99871">
        <ele>1096.39</ele>
        <time>2021-05-28T09:12:17Z</time>
      </trkpt>
      <trkpt lat="48.04289" lon="6.99847">
        <ele>1096.65</ele>
        <time>2021-05-28T09:12:44Z</time>
      </trkpt>
      <trkpt lat="48.04269" lon="6.99846">
        <ele>1097.36</ele>
        <time>2021-05-28T09:13:04Z</time>
      </trkpt>
      <trkpt lat="48.04244" lon="6.99849">
        <ele>1099.04</ele>
        <time>2021-05-28T09:13:28Z</time>
      </trkpt>
      <trkpt lat="48.04223" lon="6.99859">
        <ele>1100.69</ele>
        <time>2021-05-28T09:13:50Z</time>
      </trkpt>
      <trkpt lat="48.04203" lon="6.99874">
        <ele>1102.52</ele>
        <time>2021-05-28T09:14:18Z</time>
      </trkpt>
      <trkpt lat="48.04184" lon="6.99882">
        <ele>1104.46</ele>
        <time>2021-05-28T09:14:37Z</time>
      </trkpt>
      <trkpt lat="48.04157" lon="6.99894">
        <ele>1106.94</ele>
        <time>2021-05-28T09:15:07Z</time>
      </trkpt>
      <trkpt lat="48.04131" lon="6.9991">
        <ele>1108.03</ele>
        <time>2021-05-28T09:15:33Z</time>
      </trkpt>
      <trkpt lat="48.04117" lon="6.99901">
        <ele>1107.18</ele>
        <time>2021-05-28T09:16:11Z</time>
      </trkpt>
      <trkpt lat="48.04121" lon="6.99906">
        <ele>1106.37</ele>
        <time>2021-05-28T09:17:04Z</time>
      </trkpt>
      <trkpt lat="48.04132" lon="6.99938">
        <ele>1110.91</ele>
        <time>2021-05-28T09:17:44Z</time>
      </trkpt>
      <trkpt lat="48.04155" lon="6.99935">
        <ele>1114.65</ele>
        <time>2021-05-28T09:18:20Z</time>
      </trkpt>
      <trkpt lat="48.04182" lon="6.99945">
        <ele>1117.76</ele>
        <time>2021-05-28T09:18:52Z</time>
      </trkpt>
      <trkpt lat="48.04203" lon="6.99964">
        <ele>1122.1</ele>
        <time>2021-05-28T09:19:29Z</time>
      </trkpt>
      <trkpt lat="48.0422" lon="6.99975">
        <ele>1127.17</ele>
        <time>2021-05-28T09:20:09Z</time>
      </trkpt>
      <trkpt lat="48.04241" lon="6.99984">
        <ele>1132.91</ele>
        <time>2021-05-28T09:20:46Z</time>
      </trkpt>
      <trkpt lat="48.04271" lon="6.99999">
        <ele>1136.4</ele>
        <time>2021-05-28T09:21:19Z</time>
      </trkpt>
      <trkpt lat="48.04298" lon="7.00027">
        <ele>1141.49</ele>
        <time>2021-05-28T09:21:57Z</time>
      </trkpt>
      <trkpt lat="48.04318" lon="7.00049">
        <ele>1144.31</ele>
        <time>2021-05-28T09:22:25Z</time>
      </trkpt>
      <trkpt lat="48.04324" lon="7.00067">
        <ele>1149.1</ele>
        <time>2021-05-28T09:23:01Z</time>
      </trkpt>
      <trkpt lat="48.04308" lon="7.00056">
        <ele>1151.74</ele>
        <time>2021-05-28T09:23:32Z</time>
      </trkpt>
      <trkpt lat="48.0431" lon="7.00077">
        <ele>1155.29</ele>
        <time>2021-05-28T09:24:10Z</time>
      </trkpt>
      <trkpt lat="48.04299" lon="7.00097">
        <ele>1160.66</ele>
        <time>2021-05-28T09:24:46Z</time>
      </trkpt>
      <trkpt lat="48.04314" lon="7.00111">
        <ele>1162.18</ele>
        <time>2021-05-28T09:26:28Z</time>
      </trkpt>
      <trkpt lat="48.04327" lon="7.00133">
        <ele>1163.11</ele>
        <time>2021-05-28T09:26:52Z</time>
      </trkpt>
      <trkpt lat="48.04336" lon="7.00159">
        <ele>1166.97</ele>
        <time>2021-05-28T09:27:18Z</time>
      </trkpt>
      <trkpt lat="48.0434" lon="7.00185">
        <ele>1168.73</ele>
        <time>2021-05-28T09:27:41Z</time>
      </trkpt>
      <trkpt lat="48.04329" lon="7.00195">
        <ele>1173.1</ele>
        <time>2021-05-28T09:28:09Z</time>
      </trkpt>
      <trkpt lat="48.04314" lon="7.00192">
        <ele>1175.81</ele>
        <time>2021-05-28T09:29:47Z</time>
      </trkpt>
      <trkpt lat="48.04301" lon="7.0021">
        <ele>1179.73</ele>
        <time>2021-05-28T09:30:54Z</time>
      </trkpt>
      <trkpt lat="48.04284" lon="7.00221">
        <ele>1183.6</ele>
        <time>2021-05-28T09:31:20Z</time>
      </trkpt>
      <trkpt lat="48.04268" lon="7.00233">
        <ele>1187.08</ele>
        <time>2021-05-28T09:31:48Z</time>
      </trkpt>
      <trkpt lat="48.04275" lon="7.00249">
        <ele>1190.27</ele>
        <time>2021-05-28T09:32:23Z</time>
      </trkpt>
      <trkpt lat="48.04282" lon="7.00272">
        <ele>1192.69</ele>
        <time>2021-05-28T09:33:23Z</time>
      </trkpt>
      <trkpt lat="48.04298" lon="7.00288">
        <ele>1193.97</ele>
        <time>2021-05-28T09:33:48Z</time>
      </trkpt>
      <trkpt lat="48.04297" lon="7.00302">
        <ele>1196.46</ele>
        <time>2021-05-28T09:34:15Z</time>
      </trkpt>
      <trkpt lat="48.04278" lon="7.003">
        <ele>1198.57</ele>
        <time>2021-05-28T09:34:37Z</time>
      </trkpt>
      <trkpt lat="48.04258" lon="7.00304">
        <ele>1201.04</ele>
        <time>2021-05-28T09:35:02Z</time>
      </trkpt>
      <trkpt lat="48.04245" lon="7.00318">
        <ele>1202.62</ele>
        <time>2021-05-28T09:35:27Z</time>
      </trkpt>
      <trkpt lat="48.04232" lon="7.00334">
        <ele>1204.92</ele>
        <time>2021-05-28T09:35:52Z</time>
      </trkpt>
      <trkpt lat="48.04219" lon="7.00353">
        <ele>1206.26</ele>
        <time>2021-05-28T09:36:16Z</time>
      </trkpt>
      <trkpt lat="48.04205" lon="7.00375">
        <ele>1209.87</ele>
        <time>2021-05-28T09:36:48Z</time>
      </trkpt>
      <trkpt lat="48.04188" lon="7.00406">
        <ele>1214.24</ele>
        <time>2021-05-28T09:37:27Z</time>
      </trkpt>
      <trkpt lat="48.0417" lon="7.00434">
        <ele>1217.99</ele>
        <time>2021-05-28T09:38:02Z</time>
      </trkpt>
      <trkpt lat="48.04143" lon="7.00461">
        <ele>1221.95</ele>
        <time>2021-05-28T09:38:40Z</time>
      </trkpt>
      <trkpt lat="48.04126" lon="7.00483">
        <ele>1224.05</ele>
        <time>2021-05-28T09:39:06Z</time>
      </trkpt>
      <trkpt lat="48.04113" lon="7.00514">
        <ele>1227.29</ele>
        <time>2021-05-28T09:39:35Z</time>
      </trkpt>
      <trkpt lat="48.04107" lon="7.00549">
        <ele>1228.51</ele>
        <time>2021-05-28T09:39:59Z</time>
      </trkpt>
      <trkpt lat="48.04092" lon="7.00575">
        <ele>1231.95</ele>
        <time>2021-05-28T09:40:28Z</time>
      </trkpt>
      <trkpt lat="48.04087" lon="7.00605">
        <ele>1235.4</ele>
        <time>2021-05-28T09:40:52Z</time>
      </trkpt>
      <trkpt lat="48.0408" lon="7.00635">
        <ele>1237.8</ele>
        <time>2021-05-28T09:41:14Z</time>
      </trkpt>
      <trkpt lat="48.04073" lon="7.00662">
        <ele>1239.87</ele>
        <time>2021-05-28T09:41:37Z</time>
      </trkpt>
      <trkpt lat="48.04067" lon="7.0069">
        <ele>1242.71</ele>
        <time>2021-05-28T09:42:01Z</time>
      </trkpt>
      <trkpt lat="48.04067" lon="7.00721">
        <ele>1245.16</ele>
        <time>2021-05-28T09:42:27Z</time>
      </trkpt>
      <trkpt lat="48.04064" lon="7.00749">
        <ele>1247.25</ele>
        <time>2021-05-28T09:42:49Z</time>
      </trkpt>
      <trkpt lat="48.04062" lon="7.00777">
        <ele>1249.95</ele>
        <time>2021-05-28T09:43:12Z</time>
      </trkpt>
      <trkpt lat="48.04058" lon="7.00805">
        <ele>1251.71</ele>
        <time>2021-05-28T09:43:36Z</time>
      </trkpt>
      <trkpt lat="48.04054" lon="7.00831">
        <ele>1253.21</ele>
        <time>2021-05-28T09:43:57Z</time>
      </trkpt>
      <trkpt lat="48.04048" lon="7.00856">
        <ele>1253.29</ele>
        <time>2021-05-28T09:44:20Z</time>
      </trkpt>
      <trkpt lat="48.04042" lon="7.00884">
        <ele>1255.12</ele>
        <time>2021-05-28T09:44:40Z</time>
      </trkpt>
      <trkpt lat="48.04038" lon="7.00912">
        <ele>1256.62</ele>
        <time>2021-05-28T09:45:00Z</time>
      </trkpt>
      <trkpt lat="48.04033" lon="7.00938">
        <ele>1258.49</ele>
        <time>2021-05-28T09:45:23Z</time>
      </trkpt>
      <trkpt lat="48.04021" lon="7.00958">
        <ele>1259.86</ele>
        <time>2021-05-28T09:45:44Z</time>
      </trkpt>
      <trkpt lat="48.04009" lon="7.00983">
        <ele>1262.82</ele>
        <time>2021-05-28T09:46:11Z</time>
      </trkpt>
      <trkpt lat="48.04001" lon="7.01004">
        <ele>1266.57</ele>
        <time>2021-05-28T09:48:32Z</time>
      </trkpt>
      <trkpt lat="48.03994" lon="7.01028">
        <ele>1270.18</ele>
        <time>2021-05-28T09:48:58Z</time>
      </trkpt>
      <trkpt lat="48.03985" lon="7.0105">
        <ele>1275.48</ele>
        <time>2021-05-28T09:49:28Z</time>
      </trkpt>
      <trkpt lat="48.03975" lon="7.01076">
        <ele>1280.2</ele>
        <time>2021-05-28T09:49:56Z</time>
      </trkpt>
      <trkpt lat="48.03964" lon="7.01098">
        <ele>1284.73</ele>
        <time>2021-05-28T09:50:25Z</time>
      </trkpt>
      <trkpt lat="48.03958" lon="7.01123">
        <ele>1290.46</ele>
        <time>2021-05-28T09:50:52Z</time>
      </trkpt>
      <trkpt lat="48.03947" lon="7.01144">
        <ele>1293.15</ele>
        <time>2021-05-28T09:53:08Z</time>
      </trkpt>
      <trkpt lat="48.03935" lon="7.01158">
        <ele>1297.97</ele>
        <time>2021-05-28T09:53:35Z</time>
      </trkpt>
      <trkpt lat="48.03925" lon="7.01178">
        <ele>1302.09</ele>
        <time>2021-05-28T09:54:04Z</time>
      </trkpt>
      <trkpt lat="48.03919" lon="7.01205">
        <ele>1307.21</ele>
        <time>2021-05-28T09:54:36Z</time>
      </trkpt>
      <trkpt lat="48.03911" lon="7.0123">
        <ele>1311.01</ele>
        <time>2021-05-28T09:55:04Z</time>
      </trkpt>
      <trkpt lat="48.039" lon="7.01251">
        <ele>1313.95</ele>
        <time>2021-05-28T09:55:34Z</time>
      </trkpt>
      <trkpt lat="48.03893" lon="7.0127">
        <ele>1317.52</ele>
        <time>2021-05-28T09:56:03Z</time>
      </trkpt>
      <trkpt lat="48.0388" lon="7.01289">
        <ele>1319.18</ele>
        <time>2021-05-28T09:56:25Z</time>
      </trkpt>
      <trkpt lat="48.03867" lon="7.01307">
        <ele>1321.56</ele>
        <time>2021-05-28T09:56:44Z</time>
      </trkpt>
      <trkpt lat="48.03853" lon="7.01327">
        <ele>1323.3</ele>
        <time>2021-05-28T09:57:07Z</time>
      </trkpt>
      <trkpt lat="48.0384" lon="7.01341">
        <ele>1325.14</ele>
        <time>2021-05-28T09:57:35Z</time>
      </trkpt>
      <trkpt lat="48.03823" lon="7.01351">
        <ele>1328.17</ele>
        <time>2021-05-28T09:57:58Z</time>
      </trkpt>
      <trkpt lat="48.03807" lon="7.01364">
        <ele>1330.44</ele>
        <time>2021-05-28T09:58:20Z</time>
      </trkpt>
      <trkpt lat="48.03805" lon="7.01388">
        <ele>1333.46</ele>
        <time>2021-05-28T09:58:42Z</time>
      </trkpt>
      <trkpt lat="48.03816" lon="7.01421">
        <ele>1335.26</ele>
        <time>2021-05-28T09:59:06Z</time>
      </trkpt>
      <trkpt lat="48.03829" lon="7.01445">
        <ele>1338.2</ele>
        <time>2021-05-28T09:59:29Z</time>
      </trkpt>
      <trkpt lat="48.03839" lon="7.01468">
        <ele>1340.17</ele>
        <time>2021-05-28T09:59:55Z</time>
      </trkpt>
      <trkpt lat="48.03842" lon="7.01493">
        <ele>1342.88</ele>
        <time>2021-05-28T10:00:25Z</time>
      </trkpt>
      <trkpt lat="48.03826" lon="7.01504">
        <ele>1345.4</ele>
        <time>2021-05-28T10:00:48Z</time>
      </trkpt>
      <trkpt lat="48.03806" lon="7.01511">
        <ele>1347.56</ele>
        <time>2021-05-28T10:01:12Z</time>
      </trkpt>
      <trkpt lat="48.03801" lon="7.01527">
        <ele>1349.79</ele>
        <time>2021-05-28T10:01:41Z</time>
      </trkpt>
      <trkpt lat="48.03799" lon="7.01553">
        <ele>1350.89</ele>
        <time>2021-05-28T10:02:01Z</time>
      </trkpt>
      <trkpt lat="48.03789" lon="7.0158">
        <ele>1352.71</ele>
        <time>2021-05-28T10:02:24Z</time>
      </trkpt>
      <trkpt lat="48.03778" lon="7.016">
        <ele>1353.97</ele>
        <time>2021-05-28T10:02:43Z</time>
      </trkpt>
      <trkpt lat="48.0377" lon="7.01621">
        <ele>1353.62</ele>
        <time>2021-05-28T10:03:18Z</time>
      </trkpt>
      <trkpt lat="48.03765" lon="7.01637">
        <ele>1354.47</ele>
        <time>2021-05-28T10:04:45Z</time>
      </trkpt>
      <trkpt lat="48.03746" lon="7.01626">
        <ele>1354.42</ele>
        <time>2021-05-28T10:06:35Z</time>
      </trkpt>
      <trkpt lat="48.03745" lon="7.01645">
        <ele>1354</ele>
        <time>2021-05-28T10:07:47Z</time>
      </trkpt>
      <trkpt lat="48.03754" lon="7.01635">
        <ele>1354.97</ele>
        <time>2021-05-28T10:09:07Z</time>
      </trkpt>
      <trkpt lat="48.0377" lon="7.01624">
        <ele>1354.81</ele>
        <time>2021-05-28T10:09:37Z</time>
      </trkpt>
      <trkpt lat="48.03781" lon="7.01605">
        <ele>1354.83</ele>
        <time>2021-05-28T10:09:57Z</time>
      </trkpt>
      <trkpt lat="48.03791" lon="7.01583">
        <ele>1352.59</ele>
        <time>2021-05-28T10:10:29Z</time>
      </trkpt>
      <trkpt lat="48.03795" lon="7.01553">
        <ele>1351</ele>
        <time>2021-05-28T10:10:52Z</time>
      </trkpt>
      <trkpt lat="48.03795" lon="7.01524">
        <ele>1349.43</ele>
        <time>2021-05-28T10:11:12Z</time>
      </trkpt>
      <trkpt lat="48.03812" lon="7.01516">
        <ele>1347.09</ele>
        <time>2021-05-28T10:11:34Z</time>
      </trkpt>
      <trkpt lat="48.03827" lon="7.01507">
        <ele>1344.08</ele>
        <time>2021-05-28T10:11:52Z</time>
      </trkpt>
      <trkpt lat="48.03841" lon="7.01495">
        <ele>1342.46</ele>
        <time>2021-05-28T10:12:28Z</time>
      </trkpt>
      <trkpt lat="48.03849" lon="7.01472">
        <ele>1338.87</ele>
        <time>2021-05-28T10:12:46Z</time>
      </trkpt>
      <trkpt lat="48.03861" lon="7.01451">
        <ele>1336.74</ele>
        <time>2021-05-28T10:13:05Z</time>
      </trkpt>
      <trkpt lat="48.03876" lon="7.01423">
        <ele>1334.43</ele>
        <time>2021-05-28T10:13:24Z</time>
      </trkpt>
      <trkpt lat="48.03887" lon="7.014">
        <ele>1332.93</ele>
        <time>2021-05-28T10:13:49Z</time>
      </trkpt>
      <trkpt lat="48.03899" lon="7.0138">
        <ele>1330.44</ele>
        <time>2021-05-28T10:14:09Z</time>
      </trkpt>
      <trkpt lat="48.03915" lon="7.01368">
        <ele>1329.06</ele>
        <time>2021-05-28T10:14:25Z</time>
      </trkpt>
      <trkpt lat="48.0393" lon="7.01351">
        <ele>1327.34</ele>
        <time>2021-05-28T10:14:42Z</time>
      </trkpt>
      <trkpt lat="48.03945" lon="7.01336">
        <ele>1325.04</ele>
        <time>2021-05-28T10:15:00Z</time>
      </trkpt>
      <trkpt lat="48.03961" lon="7.0132">
        <ele>1324.18</ele>
        <time>2021-05-28T10:15:22Z</time>
      </trkpt>
      <trkpt lat="48.03978" lon="7.01308">
        <ele>1322.14</ele>
        <time>2021-05-28T10:15:40Z</time>
      </trkpt>
      <trkpt lat="48.03995" lon="7.01297">
        <ele>1319.42</ele>
        <time>2021-05-28T10:15:57Z</time>
      </trkpt>
      <trkpt lat="48.04008" lon="7.01282">
        <ele>1317.28</ele>
        <time>2021-05-28T10:16:14Z</time>
      </trkpt>
      <trkpt lat="48.04023" lon="7.01266">
        <ele>1314.62</ele>
        <time>2021-05-28T10:16:31Z</time>
      </trkpt>
      <trkpt lat="48.04041" lon="7.01256">
        <ele>1313.32</ele>
        <time>2021-05-28T10:16:46Z</time>
      </trkpt>
      <trkpt lat="48.04055" lon="7.01245">
        <ele>1310.96</ele>
        <time>2021-05-28T10:17:01Z</time>
      </trkpt>
      <trkpt lat="48.04066" lon="7.01223">
        <ele>1308.66</ele>
        <time>2021-05-28T10:17:24Z</time>
      </trkpt>
      <trkpt lat="48.04077" lon="7.01201">
        <ele>1305.78</ele>
        <time>2021-05-28T10:17:42Z</time>
      </trkpt>
      <trkpt lat="48.0409" lon="7.01183">
        <ele>1302.61</ele>
        <time>2021-05-28T10:17:59Z</time>
      </trkpt>
      <trkpt lat="48.04102" lon="7.01164">
        <ele>1299.22</ele>
        <time>2021-05-28T10:18:17Z</time>
      </trkpt>
      <trkpt lat="48.04111" lon="7.01142">
        <ele>1296.65</ele>
        <time>2021-05-28T10:18:36Z</time>
      </trkpt>
      <trkpt lat="48.04124" lon="7.01128">
        <ele>1294.25</ele>
        <time>2021-05-28T10:18:52Z</time>
      </trkpt>
      <trkpt lat="48.04133" lon="7.01107">
        <ele>1290.92</ele>
        <time>2021-05-28T10:19:11Z</time>
      </trkpt>
      <trkpt lat="48.04145" lon="7.0109">
        <ele>1288.33</ele>
        <time>2021-05-28T10:19:29Z</time>
      </trkpt>
      <trkpt lat="48.0416" lon="7.01098">
        <ele>1287.57</ele>
        <time>2021-05-28T10:19:48Z</time>
      </trkpt>
      <trkpt lat="48.04174" lon="7.0111">
        <ele>1285.47</ele>
        <time>2021-05-28T10:20:06Z</time>
      </trkpt>
      <trkpt lat="48.04192" lon="7.01115">
        <ele>1286.19</ele>
        <time>2021-05-28T10:20:24Z</time>
      </trkpt>
      <trkpt lat="48.04209" lon="7.01123">
        <ele>1286.85</ele>
        <time>2021-05-28T10:20:43Z</time>
      </trkpt>
      <trkpt lat="48.04225" lon="7.01132">
        <ele>1288.08</ele>
        <time>2021-05-28T10:21:03Z</time>
      </trkpt>
      <trkpt lat="48.04241" lon="7.01141">
        <ele>1290.35</ele>
        <time>2021-05-28T10:21:26Z</time>
      </trkpt>
      <trkpt lat="48.04259" lon="7.01148">
        <ele>1294.18</ele>
        <time>2021-05-28T10:22:08Z</time>
      </trkpt>
      <trkpt lat="48.04276" lon="7.01157">
        <ele>1295.3</ele>
        <time>2021-05-28T10:22:37Z</time>
      </trkpt>
      <trkpt lat="48.04291" lon="7.01169">
        <ele>1295.36</ele>
        <time>2021-05-28T10:23:42Z</time>
      </trkpt>
      <trkpt lat="48.04308" lon="7.01179">
        <ele>1293.45</ele>
        <time>2021-05-28T10:24:04Z</time>
      </trkpt>
      <trkpt lat="48.04325" lon="7.01189">
        <ele>1291.75</ele>
        <time>2021-05-28T10:24:25Z</time>
      </trkpt>
      <trkpt lat="48.04343" lon="7.01197">
        <ele>1290.77</ele>
        <time>2021-05-28T10:24:46Z</time>
      </trkpt>
      <trkpt lat="48.04362" lon="7.01197">
        <ele>1290.94</ele>
        <time>2021-05-28T10:25:05Z</time>
      </trkpt>
      <trkpt lat="48.04381" lon="7.01204">
        <ele>1290.56</ele>
        <time>2021-05-28T10:25:23Z</time>
      </trkpt>
      <trkpt lat="48.04399" lon="7.01211">
        <ele>1290.5</ele>
        <time>2021-05-28T10:25:43Z</time>
      </trkpt>
      <trkpt lat="48.04419" lon="7.01207">
        <ele>1290.43</ele>
        <time>2021-05-28T10:26:00Z</time>
      </trkpt>
      <trkpt lat="48.04436" lon="7.01214">
        <ele>1291.83</ele>
        <time>2021-05-28T10:26:24Z</time>
      </trkpt>
      <trkpt lat="48.04452" lon="7.01228">
        <ele>1289.67</ele>
        <time>2021-05-28T10:26:43Z</time>
      </trkpt>
      <trkpt lat="48.04469" lon="7.01241">
        <ele>1286.62</ele>
        <time>2021-05-28T10:27:00Z</time>
      </trkpt>
      <trkpt lat="48.04486" lon="7.01253">
        <ele>1284.35</ele>
        <time>2021-05-28T10:27:17Z</time>
      </trkpt>
      <trkpt lat="48.04502" lon="7.01264">
        <ele>1283.43</ele>
        <time>2021-05-28T10:27:33Z</time>
      </trkpt>
      <trkpt lat="48.04518" lon="7.01277">
        <ele>1282.35</ele>
        <time>2021-05-28T10:27:50Z</time>
      </trkpt>
      <trkpt lat="48.04534" lon="7.01292">
        <ele>1280.74</ele>
        <time>2021-05-28T10:28:07Z</time>
      </trkpt>
      <trkpt lat="48.0455" lon="7.01303">
        <ele>1278.92</ele>
        <time>2021-05-28T10:28:23Z</time>
      </trkpt>
      <trkpt lat="48.04567" lon="7.01311">
        <ele>1276.77</ele>
        <time>2021-05-28T10:28:40Z</time>
      </trkpt>
      <trkpt lat="48.04584" lon="7.01324">
        <ele>1275.11</ele>
        <time>2021-05-28T10:28:56Z</time>
      </trkpt>
      <trkpt lat="48.04598" lon="7.0134">
        <ele>1274.06</ele>
        <time>2021-05-28T10:29:12Z</time>
      </trkpt>
      <trkpt lat="48.04614" lon="7.0135">
        <ele>1273.25</ele>
        <time>2021-05-28T10:29:29Z</time>
      </trkpt>
      <trkpt lat="48.04631" lon="7.01361">
        <ele>1272.43</ele>
        <time>2021-05-28T10:29:47Z</time>
      </trkpt>
      <trkpt lat="48.04647" lon="7.01373">
        <ele>1271.75</ele>
        <time>2021-05-28T10:30:04Z</time>
      </trkpt>
      <trkpt lat="48.04664" lon="7.01383">
        <ele>1271.73</ele>
        <time>2021-05-28T10:30:21Z</time>
      </trkpt>
      <trkpt lat="48.04679" lon="7.014">
        <ele>1271.45</ele>
        <time>2021-05-28T10:30:37Z</time>
      </trkpt>
      <trkpt lat="48.04693" lon="7.01418">
        <ele>1271.1</ele>
        <time>2021-05-28T10:30:54Z</time>
      </trkpt>
      <trkpt lat="48.04706" lon="7.01439">
        <ele>1270.95</ele>
        <time>2021-05-28T10:31:10Z</time>
      </trkpt>
      <trkpt lat="48.04716" lon="7.01461">
        <ele>1269.72</ele>
        <time>2021-05-28T10:31:28Z</time>
      </trkpt>
      <trkpt lat="48.04726" lon="7.0148">
        <ele>1269.82</ele>
        <time>2021-05-28T10:31:52Z</time>
      </trkpt>
      <trkpt lat="48.04742" lon="7.0149">
        <ele>1268.53</ele>
        <time>2021-05-28T10:32:17Z</time>
      </trkpt>
      <trkpt lat="48.04757" lon="7.01485">
        <ele>1267.82</ele>
        <time>2021-05-28T10:32:35Z</time>
      </trkpt>
      <trkpt lat="48.04773" lon="7.01468">
        <ele>1266.53</ele>
        <time>2021-05-28T10:32:52Z</time>
      </trkpt>
      <trkpt lat="48.04788" lon="7.01451">
        <ele>1263.72</ele>
        <time>2021-05-28T10:33:09Z</time>
      </trkpt>
      <trkpt lat="48.04806" lon="7.01446">
        <ele>1262.56</ele>
        <time>2021-05-28T10:34:00Z</time>
      </trkpt>
      <trkpt lat="48.04828" lon="7.01452">
        <ele>1258.74</ele>
        <time>2021-05-28T10:34:26Z</time>
      </trkpt>
      <trkpt lat="48.04848" lon="7.01463">
        <ele>1256.56</ele>
        <time>2021-05-28T10:34:47Z</time>
      </trkpt>
      <trkpt lat="48.04865" lon="7.01473">
        <ele>1254.19</ele>
        <time>2021-05-28T10:35:47Z</time>
      </trkpt>
      <trkpt lat="48.04874" lon="7.01475">
        <ele>1253.73</ele>
        <time>2021-05-28T10:37:20Z</time>
      </trkpt>
      <trkpt lat="48.04895" lon="7.01494">
        <ele>1249.97</ele>
        <time>2021-05-28T10:37:46Z</time>
      </trkpt>
      <trkpt lat="48.0492" lon="7.01509">
        <ele>1246.56</ele>
        <time>2021-05-28T10:38:12Z</time>
      </trkpt>
      <trkpt lat="48.04941" lon="7.01524">
        <ele>1244.32</ele>
        <time>2021-05-28T10:38:36Z</time>
      </trkpt>
      <trkpt lat="48.04965" lon="7.01544">
        <ele>1242.74</ele>
        <time>2021-05-28T10:39:05Z</time>
      </trkpt>
      <trkpt lat="48.04985" lon="7.01552">
        <ele>1242.1</ele>
        <time>2021-05-28T10:39:53Z</time>
      </trkpt>
      <trkpt lat="48.05007" lon="7.01554">
        <ele>1240.23</ele>
        <time>2021-05-28T10:40:12Z</time>
      </trkpt>
      <trkpt lat="48.05032" lon="7.01567">
        <ele>1236.92</ele>
        <time>2021-05-28T10:40:41Z</time>
      </trkpt>
      <trkpt lat="48.05054" lon="7.01574">
        <ele>1236.38</ele>
        <time>2021-05-28T10:41:07Z</time>
      </trkpt>
      <trkpt lat="48.05075" lon="7.01582">
        <ele>1235.15</ele>
        <time>2021-05-28T10:41:30Z</time>
      </trkpt>
      <trkpt lat="48.05091" lon="7.01591">
        <ele>1234.83</ele>
        <time>2021-05-28T10:42:06Z</time>
      </trkpt>
      <trkpt lat="48.05115" lon="7.01587">
        <ele>1233.73</ele>
        <time>2021-05-28T10:42:29Z</time>
      </trkpt>
      <trkpt lat="48.05141" lon="7.01596">
        <ele>1232.16</ele>
        <time>2021-05-28T10:42:52Z</time>
      </trkpt>
      <trkpt lat="48.05164" lon="7.01606">
        <ele>1231.07</ele>
        <time>2021-05-28T10:43:11Z</time>
      </trkpt>
      <trkpt lat="48.05185" lon="7.01617">
        <ele>1230.91</ele>
        <time>2021-05-28T10:43:29Z</time>
      </trkpt>
      <trkpt lat="48.05194" lon="7.01635">
        <ele>1230.92</ele>
        <time>2021-05-28T10:43:52Z</time>
      </trkpt>
      <trkpt lat="48.05189" lon="7.0166">
        <ele>1230.27</ele>
        <time>2021-05-28T10:44:14Z</time>
      </trkpt>
      <trkpt lat="48.0519" lon="7.01689">
        <ele>1230.19</ele>
        <time>2021-05-28T10:44:40Z</time>
      </trkpt>
      <trkpt lat="48.05182" lon="7.01699">
        <ele>1228.83</ele>
        <time>2021-05-28T10:45:14Z</time>
      </trkpt>
      <trkpt lat="48.0518" lon="7.01728">
        <ele>1228.77</ele>
        <time>2021-05-28T10:45:32Z</time>
      </trkpt>
      <trkpt lat="48.05184" lon="7.01755">
        <ele>1229.08</ele>
        <time>2021-05-28T10:45:49Z</time>
      </trkpt>
      <trkpt lat="48.05189" lon="7.01783">
        <ele>1230.22</ele>
        <time>2021-05-28T10:46:15Z</time>
      </trkpt>
      <trkpt lat="48.05183" lon="7.01787">
        <ele>1229.5</ele>
        <time>2021-05-28T10:47:27Z</time>
      </trkpt>
      <trkpt lat="48.05185" lon="7.018">
        <ele>1229.37</ele>
        <time>2021-05-28T10:48:19Z</time>
      </trkpt>
      <trkpt lat="48.05182" lon="7.018">
        <ele>1229.16</ele>
        <time>2021-05-28T10:49:01Z</time>
      </trkpt>
      <trkpt lat="48.05186" lon="7.01788">
        <ele>1229.39</ele>
        <time>2021-05-28T10:50:11Z</time>
      </trkpt>
      <trkpt lat="48.05186" lon="7.01785">
        <ele>1229.3</ele>
        <time>2021-05-28T10:51:39Z</time>
      </trkpt>
      <trkpt lat="48.05181" lon="7.01798">
        <ele>1229.3</ele>
        <time>2021-05-28T10:53:00Z</time>
      </trkpt>
      <trkpt lat="48.05186" lon="7.01794">
        <ele>1229.15</ele>
        <time>2021-05-28T10:54:27Z</time>
      </trkpt>
      <trkpt lat="48.05187" lon="7.01786">
        <ele>1229.71</ele>
        <time>2021-05-28T10:55:55Z</time>
      </trkpt>
      <trkpt lat="48.05185" lon="7.01786">
        <ele>1229.67</ele>
        <time>2021-05-28T10:57:13Z</time>
      </trkpt>
      <trkpt lat="48.05196" lon="7.01783">
        <ele>1230.35</ele>
        <time>2021-05-28T10:58:30Z</time>
      </trkpt>
      <trkpt lat="48.05188" lon="7.01789">
        <ele>1229.86</ele>
        <time>2021-05-28T10:59:34Z</time>
      </trkpt>
      <trkpt lat="48.0519" lon="7.01785">
        <ele>1230.66</ele>
        <time>2021-05-28T11:01:11Z</time>
      </trkpt>
      <trkpt lat="48.05186" lon="7.01782">
        <ele>1230.64</ele>
        <time>2021-05-28T11:02:17Z</time>
      </trkpt>
      <trkpt lat="48.05187" lon="7.01792">
        <ele>1230.74</ele>
        <time>2021-05-28T11:03:38Z</time>
      </trkpt>
      <trkpt lat="48.05191" lon="7.01789">
        <ele>1230.8</ele>
        <time>2021-05-28T11:04:56Z</time>
      </trkpt>
      <trkpt lat="48.05185" lon="7.0179">
        <ele>1231.4</ele>
        <time>2021-05-28T11:05:57Z</time>
      </trkpt>
      <trkpt lat="48.05193" lon="7.01783">
        <ele>1231.52</ele>
        <time>2021-05-28T11:07:11Z</time>
      </trkpt>
      <trkpt lat="48.05186" lon="7.01787">
        <ele>1232.47</ele>
        <time>2021-05-28T11:08:20Z</time>
      </trkpt>
      <trkpt lat="48.05185" lon="7.01799">
        <ele>1232.38</ele>
        <time>2021-05-28T11:09:11Z</time>
      </trkpt>
      <trkpt lat="48.05198" lon="7.01783">
        <ele>1232.59</ele>
        <time>2021-05-28T11:09:43Z</time>
      </trkpt>
      <trkpt lat="48.05187" lon="7.01796">
        <ele>1232.83</ele>
        <time>2021-05-28T11:10:37Z</time>
      </trkpt>
      <trkpt lat="48.0518" lon="7.01789">
        <ele>1233.1</ele>
        <time>2021-05-28T11:11:27Z</time>
      </trkpt>
      <trkpt lat="48.05192" lon="7.01794">
        <ele>1233.07</ele>
        <time>2021-05-28T11:12:39Z</time>
      </trkpt>
      <trkpt lat="48.05187" lon="7.01793">
        <ele>1233.06</ele>
        <time>2021-05-28T11:14:07Z</time>
      </trkpt>
      <trkpt lat="48.05186" lon="7.01795">
        <ele>1233.75</ele>
        <time>2021-05-28T11:15:23Z</time>
      </trkpt>
      <trkpt lat="48.05187" lon="7.01792">
        <ele>1234.11</ele>
        <time>2021-05-28T11:16:35Z</time>
      </trkpt>
      <trkpt lat="48.05191" lon="7.01792">
        <ele>1233.66</ele>
        <time>2021-05-28T11:17:41Z</time>
      </trkpt>
      <trkpt lat="48.05186" lon="7.01794">
        <ele>1233.92</ele>
        <time>2021-05-28T11:18:51Z</time>
      </trkpt>
      <trkpt lat="48.0519" lon="7.01792">
        <ele>1233.78</ele>
        <time>2021-05-28T11:20:12Z</time>
      </trkpt>
      <trkpt lat="48.05188" lon="7.01796">
        <ele>1234.09</ele>
        <time>2021-05-28T11:21:53Z</time>
      </trkpt>
      <trkpt lat="48.05183" lon="7.0179">
        <ele>1234.34</ele>
        <time>2021-05-28T11:22:53Z</time>
      </trkpt>
      <trkpt lat="48.05183" lon="7.01788">
        <ele>1234.8</ele>
        <time>2021-05-28T11:24:03Z</time>
      </trkpt>
      <trkpt lat="48.05192" lon="7.01789">
        <ele>1234.75</ele>
        <time>2021-05-28T11:25:08Z</time>
      </trkpt>
      <trkpt lat="48.0519" lon="7.01797">
        <ele>1235.68</ele>
        <time>2021-05-28T11:26:09Z</time>
      </trkpt>
      <trkpt lat="48.0519" lon="7.0179">
        <ele>1234.83</ele>
        <time>2021-05-28T11:27:30Z</time>
      </trkpt>
      <trkpt lat="48.05185" lon="7.01785">
        <ele>1234.46</ele>
        <time>2021-05-28T11:28:39Z</time>
      </trkpt>
      <trkpt lat="48.05182" lon="7.01789">
        <ele>1235.37</ele>
        <time>2021-05-28T11:30:05Z</time>
      </trkpt>
      <trkpt lat="48.05181" lon="7.01783">
        <ele>1235.32</ele>
        <time>2021-05-28T11:31:01Z</time>
      </trkpt>
      <trkpt lat="48.05178" lon="7.01796">
        <ele>1235.46</ele>
        <time>2021-05-28T11:31:54Z</time>
      </trkpt>
      <trkpt lat="48.05195" lon="7.01794">
        <ele>1235.58</ele>
        <time>2021-05-28T11:32:25Z</time>
      </trkpt>
      <trkpt lat="48.05185" lon="7.0179">
        <ele>1235.65</ele>
        <time>2021-05-28T11:33:20Z</time>
      </trkpt>
      <trkpt lat="48.05192" lon="7.01785">
        <ele>1236.6</ele>
        <time>2021-05-28T11:34:32Z</time>
      </trkpt>
      <trkpt lat="48.05192" lon="7.01778">
        <ele>1236.65</ele>
        <time>2021-05-28T11:35:43Z</time>
      </trkpt>
      <trkpt lat="48.05188" lon="7.01784">
        <ele>1236.55</ele>
        <time>2021-05-28T11:36:41Z</time>
      </trkpt>
      <trkpt lat="48.05196" lon="7.01784">
        <ele>1235.52</ele>
        <time>2021-05-28T11:37:36Z</time>
      </trkpt>
      <trkpt lat="48.05198" lon="7.01785">
        <ele>1235.3</ele>
        <time>2021-05-28T11:38:54Z</time>
      </trkpt>
      <trkpt lat="48.0519" lon="7.01774">
        <ele>1235.17</ele>
        <time>2021-05-28T11:39:54Z</time>
      </trkpt>
      <trkpt lat="48.05177" lon="7.01758">
        <ele>1234.28</ele>
        <time>2021-05-28T11:40:46Z</time>
      </trkpt>
      <trkpt lat="48.05181" lon="7.01729">
        <ele>1233.83</ele>
        <time>2021-05-28T11:41:18Z</time>
      </trkpt>
      <trkpt lat="48.05183" lon="7.017">
        <ele>1236.1</ele>
        <time>2021-05-28T11:41:39Z</time>
      </trkpt>
      <trkpt lat="48.05186" lon="7.01672">
        <ele>1235.79</ele>
        <time>2021-05-28T11:42:01Z</time>
      </trkpt>
      <trkpt lat="48.05198" lon="7.0164">
        <ele>1236.2</ele>
        <time>2021-05-28T11:42:27Z</time>
      </trkpt>
      <trkpt lat="48.05208" lon="7.01632">
        <ele>1236.16</ele>
        <time>2021-05-28T11:42:47Z</time>
      </trkpt>
      <trkpt lat="48.05224" lon="7.01647">
        <ele>1236.49</ele>
        <time>2021-05-28T11:43:11Z</time>
      </trkpt>
      <trkpt lat="48.05245" lon="7.01667">
        <ele>1238.29</ele>
        <time>2021-05-28T11:43:34Z</time>
      </trkpt>
      <trkpt lat="48.05259" lon="7.01691">
        <ele>1241.06</ele>
        <time>2021-05-28T11:43:58Z</time>
      </trkpt>
      <trkpt lat="48.05277" lon="7.01713">
        <ele>1242.96</ele>
        <time>2021-05-28T11:44:28Z</time>
      </trkpt>
      <trkpt lat="48.05301" lon="7.01736">
        <ele>1246.15</ele>
        <time>2021-05-28T11:44:56Z</time>
      </trkpt>
      <trkpt lat="48.05325" lon="7.0175">
        <ele>1249.66</ele>
        <time>2021-05-28T11:45:25Z</time>
      </trkpt>
      <trkpt lat="48.05349" lon="7.01769">
        <ele>1252.22</ele>
        <time>2021-05-28T11:45:53Z</time>
      </trkpt>
      <trkpt lat="48.05369" lon="7.01789">
        <ele>1254.63</ele>
        <time>2021-05-28T11:46:21Z</time>
      </trkpt>
      <trkpt lat="48.05389" lon="7.01802">
        <ele>1256.79</ele>
        <time>2021-05-28T11:46:44Z</time>
      </trkpt>
      <trkpt lat="48.05409" lon="7.01819">
        <ele>1257.8</ele>
        <time>2021-05-28T11:47:09Z</time>
      </trkpt>
      <trkpt lat="48.0543" lon="7.01834">
        <ele>1258.89</ele>
        <time>2021-05-28T11:47:31Z</time>
      </trkpt>
      <trkpt lat="48.05453" lon="7.01847">
        <ele>1259.13</ele>
        <time>2021-05-28T11:47:52Z</time>
      </trkpt>
      <trkpt lat="48.05473" lon="7.01859">
        <ele>1259.75</ele>
        <time>2021-05-28T11:48:13Z</time>
      </trkpt>
      <trkpt lat="48.05492" lon="7.01874">
        <ele>1259.48</ele>
        <time>2021-05-28T11:48:33Z</time>
      </trkpt>
      <trkpt lat="48.0551" lon="7.01891">
        <ele>1259.21</ele>
        <time>2021-05-28T11:48:52Z</time>
      </trkpt>
      <trkpt lat="48.05523" lon="7.01899">
        <ele>1258.37</ele>
        <time>2021-05-28T11:49:32Z</time>
      </trkpt>
      <trkpt lat="48.05538" lon="7.01904">
        <ele>1257.47</ele>
        <time>2021-05-28T11:50:07Z</time>
      </trkpt>
      <trkpt lat="48.05558" lon="7.01914">
        <ele>1256.74</ele>
        <time>2021-05-28T11:50:31Z</time>
      </trkpt>
      <trkpt lat="48.05578" lon="7.01916">
        <ele>1255.15</ele>
        <time>2021-05-28T11:50:50Z</time>
      </trkpt>
      <trkpt lat="48.05596" lon="7.01909">
        <ele>1254.05</ele>
        <time>2021-05-28T11:51:09Z</time>
      </trkpt>
      <trkpt lat="48.05615" lon="7.019">
        <ele>1253.33</ele>
        <time>2021-05-28T11:51:33Z</time>
      </trkpt>
      <trkpt lat="48.05639" lon="7.0189">
        <ele>1252.77</ele>
        <time>2021-05-28T11:52:05Z</time>
      </trkpt>
      <trkpt lat="48.05669" lon="7.01904">
        <ele>1251.87</ele>
        <time>2021-05-28T11:52:29Z</time>
      </trkpt>
      <trkpt lat="48.05689" lon="7.01913">
        <ele>1250.26</ele>
        <time>2021-05-28T11:52:47Z</time>
      </trkpt>
      <trkpt lat="48.05706" lon="7.0191">
        <ele>1249.46</ele>
        <time>2021-05-28T11:53:13Z</time>
      </trkpt>
      <trkpt lat="48.05724" lon="7.01915">
        <ele>1247.57</ele>
        <time>2021-05-28T11:54:16Z</time>
      </trkpt>
      <trkpt lat="48.05745" lon="7.01918">
        <ele>1245.66</ele>
        <time>2021-05-28T11:54:40Z</time>
      </trkpt>
      <trkpt lat="48.05761" lon="7.01903">
        <ele>1243.98</ele>
        <time>2021-05-28T11:55:00Z</time>
      </trkpt>
      <trkpt lat="48.05775" lon="7.01879">
        <ele>1243.11</ele>
        <time>2021-05-28T11:55:19Z</time>
      </trkpt>
      <trkpt lat="48.05792" lon="7.01868">
        <ele>1239.47</ele>
        <time>2021-05-28T11:55:37Z</time>
      </trkpt>
      <trkpt lat="48.05815" lon="7.01863">
        <ele>1235.32</ele>
        <time>2021-05-28T11:56:01Z</time>
      </trkpt>
      <trkpt lat="48.05833" lon="7.0187">
        <ele>1232.48</ele>
        <time>2021-05-28T11:56:42Z</time>
      </trkpt>
      <trkpt lat="48.05848" lon="7.01872">
        <ele>1228.43</ele>
        <time>2021-05-28T11:57:26Z</time>
      </trkpt>
      <trkpt lat="48.05873" lon="7.01872">
        <ele>1223.85</ele>
        <time>2021-05-28T11:57:53Z</time>
      </trkpt>
      <trkpt lat="48.05898" lon="7.01879">
        <ele>1220.23</ele>
        <time>2021-05-28T11:58:20Z</time>
      </trkpt>
      <trkpt lat="48.05916" lon="7.01886">
        <ele>1216.78</ele>
        <time>2021-05-28T11:58:42Z</time>
      </trkpt>
      <trkpt lat="48.05934" lon="7.01893">
        <ele>1212.56</ele>
        <time>2021-05-28T11:59:05Z</time>
      </trkpt>
      <trkpt lat="48.05951" lon="7.01896">
        <ele>1211.63</ele>
        <time>2021-05-28T11:59:29Z</time>
      </trkpt>
      <trkpt lat="48.05969" lon="7.01888">
        <ele>1205.39</ele>
        <time>2021-05-28T11:59:53Z</time>
      </trkpt>
      <trkpt lat="48.05987" lon="7.01893">
        <ele>1200.13</ele>
        <time>2021-05-28T12:00:16Z</time>
      </trkpt>
      <trkpt lat="48.06005" lon="7.01898">
        <ele>1196.53</ele>
        <time>2021-05-28T12:00:36Z</time>
      </trkpt>
      <trkpt lat="48.06022" lon="7.01904">
        <ele>1191.68</ele>
        <time>2021-05-28T12:00:57Z</time>
      </trkpt>
      <trkpt lat="48.0604" lon="7.01909">
        <ele>1188.53</ele>
        <time>2021-05-28T12:01:17Z</time>
      </trkpt>
      <trkpt lat="48.06057" lon="7.01918">
        <ele>1183.67</ele>
        <time>2021-05-28T12:01:39Z</time>
      </trkpt>
      <trkpt lat="48.06075" lon="7.01923">
        <ele>1180.41</ele>
        <time>2021-05-28T12:01:58Z</time>
      </trkpt>
      <trkpt lat="48.06093" lon="7.01927">
        <ele>1176.17</ele>
        <time>2021-05-28T12:02:18Z</time>
      </trkpt>
      <trkpt lat="48.06111" lon="7.01932">
        <ele>1171.58</ele>
        <time>2021-05-28T12:02:38Z</time>
      </trkpt>
      <trkpt lat="48.06129" lon="7.01936">
        <ele>1167.6</ele>
        <time>2021-05-28T12:02:57Z</time>
      </trkpt>
      <trkpt lat="48.06146" lon="7.0194">
        <ele>1163.4</ele>
        <time>2021-05-28T12:03:18Z</time>
      </trkpt>
      <trkpt lat="48.06166" lon="7.01944">
        <ele>1160.62</ele>
        <time>2021-05-28T12:03:37Z</time>
      </trkpt>
      <trkpt lat="48.06185" lon="7.01951">
        <ele>1156.52</ele>
        <time>2021-05-28T12:03:57Z</time>
      </trkpt>
      <trkpt lat="48.06202" lon="7.01967">
        <ele>1152.74</ele>
        <time>2021-05-28T12:04:20Z</time>
      </trkpt>
      <trkpt lat="48.06219" lon="7.01982">
        <ele>1149.28</ele>
        <time>2021-05-28T12:04:44Z</time>
      </trkpt>
      <trkpt lat="48.06244" lon="7.01983">
        <ele>1144.03</ele>
        <time>2021-05-28T12:05:10Z</time>
      </trkpt>
      <trkpt lat="48.06249" lon="7.01958">
        <ele>1143.86</ele>
        <time>2021-05-28T12:05:47Z</time>
      </trkpt>
      <trkpt lat="48.06244" lon="7.01926">
        <ele>1145.07</ele>
        <time>2021-05-28T12:06:14Z</time>
      </trkpt>
      <trkpt lat="48.0624" lon="7.01897">
        <ele>1145.44</ele>
        <time>2021-05-28T12:06:36Z</time>
      </trkpt>
      <trkpt lat="48.06237" lon="7.01865">
        <ele>1146.51</ele>
        <time>2021-05-28T12:07:00Z</time>
      </trkpt>
      <trkpt lat="48.06234" lon="7.01837">
        <ele>1146.99</ele>
        <time>2021-05-28T12:07:23Z</time>
      </trkpt>
      <trkpt lat="48.06234" lon="7.01808">
        <ele>1147.31</ele>
        <time>2021-05-28T12:07:48Z</time>
      </trkpt>
      <trkpt lat="48.06233" lon="7.01768">
        <ele>1148.29</ele>
        <time>2021-05-28T12:08:19Z</time>
      </trkpt>
      <trkpt lat="48.06229" lon="7.01725">
        <ele>1148.5</ele>
        <time>2021-05-28T12:08:52Z</time>
      </trkpt>
      <trkpt lat="48.06221" lon="7.01688">
        <ele>1148.27</ele>
        <time>2021-05-28T12:09:36Z</time>
      </trkpt>
      <trkpt lat="48.06212" lon="7.01649">
        <ele>1148.67</ele>
        <time>2021-05-28T12:10:21Z</time>
      </trkpt>
      <trkpt lat="48.06198" lon="7.0162">
        <ele>1149.87</ele>
        <time>2021-05-28T12:10:56Z</time>
      </trkpt>
      <trkpt lat="48.06179" lon="7.01593">
        <ele>1150.14</ele>
        <time>2021-05-28T12:11:34Z</time>
      </trkpt>
      <trkpt lat="48.06147" lon="7.01547">
        <ele>1150.35</ele>
        <time>2021-05-28T12:12:09Z</time>
      </trkpt>
      <trkpt lat="48.06116" lon="7.01518">
        <ele>1150.85</ele>
        <time>2021-05-28T12:12:53Z</time>
      </trkpt>
      <trkpt lat="48.0609" lon="7.01498">
        <ele>1152.12</ele>
        <time>2021-05-28T12:13:29Z</time>
      </trkpt>
      <trkpt lat="48.06046" lon="7.01451">
        <ele>1152.04</ele>
        <time>2021-05-28T12:14:04Z</time>
      </trkpt>
      <trkpt lat="48.06009" lon="7.01419">
        <ele>1153.21</ele>
        <time>2021-05-28T12:14:33Z</time>
      </trkpt>
      <trkpt lat="48.05971" lon="7.0138">
        <ele>1153.05</ele>
        <time>2021-05-28T12:15:08Z</time>
      </trkpt>
      <trkpt lat="48.05951" lon="7.01371">
        <ele>1154.04</ele>
        <time>2021-05-28T12:15:35Z</time>
      </trkpt>
      <trkpt lat="48.05927" lon="7.01363">
        <ele>1154.76</ele>
        <time>2021-05-28T12:16:05Z</time>
      </trkpt>
      <trkpt lat="48.05889" lon="7.01345">
        <ele>1155.28</ele>
        <time>2021-05-28T12:16:31Z</time>
      </trkpt>
      <trkpt lat="48.05859" lon="7.01327">
        <ele>1155.64</ele>
        <time>2021-05-28T12:16:59Z</time>
      </trkpt>
      <trkpt lat="48.05828" lon="7.01317">
        <ele>1155.65</ele>
        <time>2021-05-28T12:17:25Z</time>
      </trkpt>
      <trkpt lat="48.05797" lon="7.01307">
        <ele>1155.63</ele>
        <time>2021-05-28T12:17:54Z</time>
      </trkpt>
      <trkpt lat="48.05767" lon="7.01298">
        <ele>1154.68</ele>
        <time>2021-05-28T12:18:22Z</time>
      </trkpt>
      <trkpt lat="48.05733" lon="7.01274">
        <ele>1153.26</ele>
        <time>2021-05-28T12:18:54Z</time>
      </trkpt>
      <trkpt lat="48.05719" lon="7.01252">
        <ele>1150.69</ele>
        <time>2021-05-28T12:19:25Z</time>
      </trkpt>
      <trkpt lat="48.05704" lon="7.01213">
        <ele>1148.5</ele>
        <time>2021-05-28T12:19:58Z</time>
      </trkpt>
      <trkpt lat="48.0569" lon="7.01163">
        <ele>1145.18</ele>
        <time>2021-05-28T12:20:28Z</time>
      </trkpt>
      <trkpt lat="48.05675" lon="7.01116">
        <ele>1143.25</ele>
        <time>2021-05-28T12:20:57Z</time>
      </trkpt>
      <trkpt lat="48.0567" lon="7.01071">
        <ele>1140.02</ele>
        <time>2021-05-28T12:21:26Z</time>
      </trkpt>
      <trkpt lat="48.05664" lon="7.01024">
        <ele>1137.6</ele>
        <time>2021-05-28T12:21:55Z</time>
      </trkpt>
      <trkpt lat="48.05661" lon="7.00973">
        <ele>1133.63</ele>
        <time>2021-05-28T12:22:30Z</time>
      </trkpt>
      <trkpt lat="48.05657" lon="7.00922">
        <ele>1130.89</ele>
        <time>2021-05-28T12:23:00Z</time>
      </trkpt>
      <trkpt lat="48.05652" lon="7.00883">
        <ele>1128.53</ele>
        <time>2021-05-28T12:23:26Z</time>
      </trkpt>
      <trkpt lat="48.05641" lon="7.00838">
        <ele>1126.23</ele>
        <time>2021-05-28T12:23:57Z</time>
      </trkpt>
      <trkpt lat="48.0563" lon="7.00801">
        <ele>1122.52</ele>
        <time>2021-05-28T12:24:34Z</time>
      </trkpt>
      <trkpt lat="48.05611" lon="7.00769">
        <ele>1118.62</ele>
        <time>2021-05-28T12:25:11Z</time>
      </trkpt>
      <trkpt lat="48.05588" lon="7.00728">
        <ele>1116.33</ele>
        <time>2021-05-28T12:25:41Z</time>
      </trkpt>
      <trkpt lat="48.05567" lon="7.00691">
        <ele>1113.89</ele>
        <time>2021-05-28T12:26:19Z</time>
      </trkpt>
      <trkpt lat="48.05552" lon="7.00668">
        <ele>1110.67</ele>
        <time>2021-05-28T12:26:50Z</time>
      </trkpt>
      <trkpt lat="48.05537" lon="7.00635">
        <ele>1108.63</ele>
        <time>2021-05-28T12:27:12Z</time>
      </trkpt>
      <trkpt lat="48.05517" lon="7.00604">
        <ele>1107.18</ele>
        <time>2021-05-28T12:27:32Z</time>
      </trkpt>
      <trkpt lat="48.05497" lon="7.00564">
        <ele>1105.58</ele>
        <time>2021-05-28T12:27:54Z</time>
      </trkpt>
      <trkpt lat="48.05479" lon="7.00532">
        <ele>1104.88</ele>
        <time>2021-05-28T12:28:17Z</time>
      </trkpt>
      <trkpt lat="48.05466" lon="7.00511">
        <ele>1105.26</ele>
        <time>2021-05-28T12:28:38Z</time>
      </trkpt>
      <trkpt lat="48.05453" lon="7.00494">
        <ele>1104.79</ele>
        <time>2021-05-28T12:28:59Z</time>
      </trkpt>
      <trkpt lat="48.05443" lon="7.0047">
        <ele>1104.4</ele>
        <time>2021-05-28T12:29:20Z</time>
      </trkpt>
      <trkpt lat="48.05446" lon="7.0044">
        <ele>1104.17</ele>
        <time>2021-05-28T12:29:39Z</time>
      </trkpt>
      <trkpt lat="48.0545" lon="7.00411">
        <ele>1105.38</ele>
        <time>2021-05-28T12:30:03Z</time>
      </trkpt>
      <trkpt lat="48.05445" lon="7.00387">
        <ele>1108.92</ele>
        <time>2021-05-28T12:30:33Z</time>
      </trkpt>
      <trkpt lat="48.05443" lon="7.00365">
        <ele>1112.31</ele>
        <time>2021-05-28T12:31:19Z</time>
      </trkpt>
      <trkpt lat="48.0544" lon="7.00336">
        <ele>1116.64</ele>
        <time>2021-05-28T12:31:53Z</time>
      </trkpt>
      <trkpt lat="48.05435" lon="7.00308">
        <ele>1121.18</ele>
        <time>2021-05-28T12:32:27Z</time>
      </trkpt>
      <trkpt lat="48.05433" lon="7.00281">
        <ele>1128.23</ele>
        <time>2021-05-28T12:33:06Z</time>
      </trkpt>
      <trkpt lat="48.05428" lon="7.00256">
        <ele>1135.48</ele>
        <time>2021-05-28T12:33:44Z</time>
      </trkpt>
      <trkpt lat="48.05421" lon="7.00231">
        <ele>1142.95</ele>
        <time>2021-05-28T12:34:24Z</time>
      </trkpt>
      <trkpt lat="48.0542" lon="7.00207">
        <ele>1148.02</ele>
        <time>2021-05-28T12:34:56Z</time>
      </trkpt>
      <trkpt lat="48.05412" lon="7.00199">
        <ele>1152.01</ele>
        <time>2021-05-28T12:35:38Z</time>
      </trkpt>
      <trkpt lat="48.05408" lon="7.00166">
        <ele>1159.69</ele>
        <time>2021-05-28T12:36:14Z</time>
      </trkpt>
      <trkpt lat="48.05393" lon="7.00134">
        <ele>1163.24</ele>
        <time>2021-05-28T12:36:38Z</time>
      </trkpt>
      <trkpt lat="48.05391" lon="7.00141">
        <ele>1163.32</ele>
        <time>2021-05-28T12:37:23Z</time>
      </trkpt>
      <trkpt lat="48.05393" lon="7.00128">
        <ele>1164.27</ele>
        <time>2021-05-28T12:39:19Z</time>
      </trkpt>
      <trkpt lat="48.05387" lon="7.00124">
        <ele>1165.34</ele>
        <time>2021-05-28T12:43:30Z</time>
      </trkpt>
      <trkpt lat="48.05389" lon="7.00095">
        <ele>1166.5</ele>
        <time>2021-05-28T12:43:53Z</time>
      </trkpt>
      <trkpt lat="48.054" lon="7.00072">
        <ele>1168.41</ele>
        <time>2021-05-28T12:44:18Z</time>
      </trkpt>
      <trkpt lat="48.0542" lon="7.00066">
        <ele>1172</ele>
        <time>2021-05-28T12:44:43Z</time>
      </trkpt>
      <trkpt lat="48.05439" lon="7.00067">
        <ele>1175.42</ele>
        <time>2021-05-28T12:45:08Z</time>
      </trkpt>
      <trkpt lat="48.05457" lon="7.00068">
        <ele>1178.77</ele>
        <time>2021-05-28T12:45:32Z</time>
      </trkpt>
      <trkpt lat="48.05476" lon="7.00067">
        <ele>1181.16</ele>
        <time>2021-05-28T12:45:55Z</time>
      </trkpt>
      <trkpt lat="48.05493" lon="7.00068">
        <ele>1181.97</ele>
        <time>2021-05-28T12:46:26Z</time>
      </trkpt>
      <trkpt lat="48.0551" lon="7.00053">
        <ele>1185.08</ele>
        <time>2021-05-28T12:46:49Z</time>
      </trkpt>
      <trkpt lat="48.05526" lon="7.00034">
        <ele>1188.3</ele>
        <time>2021-05-28T12:47:13Z</time>
      </trkpt>
      <trkpt lat="48.05542" lon="7.00015">
        <ele>1190.73</ele>
        <time>2021-05-28T12:47:40Z</time>
      </trkpt>
      <trkpt lat="48.0556" lon="6.99999">
        <ele>1191.06</ele>
        <time>2021-05-28T12:48:14Z</time>
      </trkpt>
      <trkpt lat="48.05581" lon="6.99994">
        <ele>1192.63</ele>
        <time>2021-05-28T12:48:36Z</time>
      </trkpt>
      <trkpt lat="48.05601" lon="6.99995">
        <ele>1193.85</ele>
        <time>2021-05-28T12:48:58Z</time>
      </trkpt>
      <trkpt lat="48.05614" lon="6.99983">
        <ele>1192.88</ele>
        <time>2021-05-28T12:49:22Z</time>
      </trkpt>
      <trkpt lat="48.0562" lon="6.99978">
        <ele>1192.02</ele>
        <time>2021-05-28T12:52:33Z</time>
      </trkpt>
      <trkpt lat="48.05641" lon="6.99983">
        <ele>1191.66</ele>
        <time>2021-05-28T12:55:38Z</time>
      </trkpt>
      <trkpt lat="48.05655" lon="6.99979">
        <ele>1192.84</ele>
        <time>2021-05-28T12:56:36Z</time>
      </trkpt>
      <trkpt lat="48.05672" lon="6.9997">
        <ele>1193.42</ele>
        <time>2021-05-28T12:57:08Z</time>
      </trkpt>
      <trkpt lat="48.0569" lon="6.99969">
        <ele>1191.51</ele>
        <time>2021-05-28T12:57:29Z</time>
      </trkpt>
      <trkpt lat="48.05709" lon="6.99962">
        <ele>1189.07</ele>
        <time>2021-05-28T12:57:48Z</time>
      </trkpt>
      <trkpt lat="48.05727" lon="6.99957">
        <ele>1187.53</ele>
        <time>2021-05-28T12:58:10Z</time>
      </trkpt>
      <trkpt lat="48.05745" lon="6.9995">
        <ele>1186.12</ele>
        <time>2021-05-28T12:58:28Z</time>
      </trkpt>
      <trkpt lat="48.05764" lon="6.99943">
        <ele>1185</ele>
        <time>2021-05-28T12:58:44Z</time>
      </trkpt>
      <trkpt lat="48.05782" lon="6.99936">
        <ele>1185.55</ele>
        <time>2021-05-28T12:59:00Z</time>
      </trkpt>
      <trkpt lat="48.058" lon="6.99932">
        <ele>1187.62</ele>
        <time>2021-05-28T12:59:17Z</time>
      </trkpt>
      <trkpt lat="48.05819" lon="6.99928">
        <ele>1188.35</ele>
        <time>2021-05-28T12:59:34Z</time>
      </trkpt>
      <trkpt lat="48.05838" lon="6.99922">
        <ele>1190.12</ele>
        <time>2021-05-28T12:59:51Z</time>
      </trkpt>
      <trkpt lat="48.05856" lon="6.99915">
        <ele>1190.7</ele>
        <time>2021-05-28T13:00:09Z</time>
      </trkpt>
      <trkpt lat="48.05874" lon="6.99911">
        <ele>1190.74</ele>
        <time>2021-05-28T13:00:26Z</time>
      </trkpt>
      <trkpt lat="48.05893" lon="6.99916">
        <ele>1188.81</ele>
        <time>2021-05-28T13:00:44Z</time>
      </trkpt>
      <trkpt lat="48.05911" lon="6.9992">
        <ele>1187.39</ele>
        <time>2021-05-28T13:01:00Z</time>
      </trkpt>
      <trkpt lat="48.0593" lon="6.99924">
        <ele>1185.91</ele>
        <time>2021-05-28T13:01:16Z</time>
      </trkpt>
      <trkpt lat="48.05948" lon="6.99927">
        <ele>1183.02</ele>
        <time>2021-05-28T13:01:33Z</time>
      </trkpt>
      <trkpt lat="48.05964" lon="6.99929">
        <ele>1180.39</ele>
        <time>2021-05-28T13:02:50Z</time>
      </trkpt>
      <trkpt lat="48.05982" lon="6.99934">
        <ele>1177.2</ele>
        <time>2021-05-28T13:03:31Z</time>
      </trkpt>
      <trkpt lat="48.06002" lon="6.9994">
        <ele>1173.99</ele>
        <time>2021-05-28T13:04:13Z</time>
      </trkpt>
      <trkpt lat="48.06014" lon="6.99934">
        <ele>1170.44</ele>
        <time>2021-05-28T13:05:16Z</time>
      </trkpt>
      <trkpt lat="48.06033" lon="6.99927">
        <ele>1166.71</ele>
        <time>2021-05-28T13:05:38Z</time>
      </trkpt>
      <trkpt lat="48.06051" lon="6.99931">
        <ele>1164.11</ele>
        <time>2021-05-28T13:06:08Z</time>
      </trkpt>
      <trkpt lat="48.06071" lon="6.99929">
        <ele>1160.61</ele>
        <time>2021-05-28T13:06:30Z</time>
      </trkpt>
      <trkpt lat="48.0609" lon="6.9993">
        <ele>1157.19</ele>
        <time>2021-05-28T13:06:52Z</time>
      </trkpt>
      <trkpt lat="48.0611" lon="6.99933">
        <ele>1154.5</ele>
        <time>2021-05-28T13:07:13Z</time>
      </trkpt>
      <trkpt lat="48.06129" lon="6.99937">
        <ele>1152.67</ele>
        <time>2021-05-28T13:07:33Z</time>
      </trkpt>
      <trkpt lat="48.06146" lon="6.99928">
        <ele>1150.83</ele>
        <time>2021-05-28T13:07:55Z</time>
      </trkpt>
      <trkpt lat="48.06165" lon="6.99921">
        <ele>1148.14</ele>
        <time>2021-05-28T13:08:13Z</time>
      </trkpt>
      <trkpt lat="48.06184" lon="6.99913">
        <ele>1145.2</ele>
        <time>2021-05-28T13:08:35Z</time>
      </trkpt>
      <trkpt lat="48.06202" lon="6.99902">
        <ele>1141.46</ele>
        <time>2021-05-28T13:09:00Z</time>
      </trkpt>
      <trkpt lat="48.06221" lon="6.99883">
        <ele>1137.2</ele>
        <time>2021-05-28T13:09:23Z</time>
      </trkpt>
      <trkpt lat="48.06238" lon="6.99866">
        <ele>1133.18</ele>
        <time>2021-05-28T13:09:44Z</time>
      </trkpt>
      <trkpt lat="48.06257" lon="6.99843">
        <ele>1131.35</ele>
        <time>2021-05-28T13:10:07Z</time>
      </trkpt>
      <trkpt lat="48.06275" lon="6.99823">
        <ele>1126.5</ele>
        <time>2021-05-28T13:10:31Z</time>
      </trkpt>
      <trkpt lat="48.06295" lon="6.99808">
        <ele>1122.7</ele>
        <time>2021-05-28T13:10:55Z</time>
      </trkpt>
      <trkpt lat="48.06315" lon="6.99792">
        <ele>1117.51</ele>
        <time>2021-05-28T13:11:22Z</time>
      </trkpt>
      <trkpt lat="48.06337" lon="6.99787">
        <ele>1113.12</ele>
        <time>2021-05-28T13:11:46Z</time>
      </trkpt>
      <trkpt lat="48.06362" lon="6.99782">
        <ele>1109</ele>
        <time>2021-05-28T13:12:09Z</time>
      </trkpt>
      <trkpt lat="48.0638" lon="6.99764">
        <ele>1105.59</ele>
        <time>2021-05-28T13:12:29Z</time>
      </trkpt>
      <trkpt lat="48.06398" lon="6.99745">
        <ele>1102.68</ele>
        <time>2021-05-28T13:12:48Z</time>
      </trkpt>
      <trkpt lat="48.06416" lon="6.99726">
        <ele>1099.32</ele>
        <time>2021-05-28T13:13:09Z</time>
      </trkpt>
      <trkpt lat="48.0643" lon="6.99705">
        <ele>1095.95</ele>
        <time>2021-05-28T13:13:30Z</time>
      </trkpt>
      <trkpt lat="48.06444" lon="6.9968">
        <ele>1093</ele>
        <time>2021-05-28T13:13:53Z</time>
      </trkpt>
      <trkpt lat="48.0646" lon="6.99655">
        <ele>1088.32</ele>
        <time>2021-05-28T13:14:18Z</time>
      </trkpt>
      <trkpt lat="48.06477" lon="6.99633">
        <ele>1086.95</ele>
        <time>2021-05-28T13:14:41Z</time>
      </trkpt>
      <trkpt lat="48.06496" lon="6.99619">
        <ele>1086.19</ele>
        <time>2021-05-28T13:15:00Z</time>
      </trkpt>
      <trkpt lat="48.06516" lon="6.99609">
        <ele>1086.05</ele>
        <time>2021-05-28T13:15:19Z</time>
      </trkpt>
      <trkpt lat="48.06535" lon="6.99599">
        <ele>1084.88</ele>
        <time>2021-05-28T13:15:39Z</time>
      </trkpt>
      <trkpt lat="48.06553" lon="6.99589">
        <ele>1081.23</ele>
        <time>2021-05-28T13:16:05Z</time>
      </trkpt>
      <trkpt lat="48.0657" lon="6.99579">
        <ele>1077.84</ele>
        <time>2021-05-28T13:16:25Z</time>
      </trkpt>
      <trkpt lat="48.06576" lon="6.99558">
        <ele>1076.15</ele>
        <time>2021-05-28T13:16:46Z</time>
      </trkpt>
      <trkpt lat="48.06572" lon="6.99533">
        <ele>1075.8</ele>
        <time>2021-05-28T13:17:22Z</time>
      </trkpt>
      <trkpt lat="48.06558" lon="6.99522">
        <ele>1074.36</ele>
        <time>2021-05-28T13:20:20Z</time>
      </trkpt>
      <trkpt lat="48.06541" lon="6.99507">
        <ele>1072.93</ele>
        <time>2021-05-28T13:20:41Z</time>
      </trkpt>
      <trkpt lat="48.06524" lon="6.99495">
        <ele>1072.49</ele>
        <time>2021-05-28T13:20:59Z</time>
      </trkpt>
      <trkpt lat="48.06513" lon="6.99474">
        <ele>1069.61</ele>
        <time>2021-05-28T13:21:16Z</time>
      </trkpt>
      <trkpt lat="48.06499" lon="6.99458">
        <ele>1067.8</ele>
        <time>2021-05-28T13:21:39Z</time>
      </trkpt>
      <trkpt lat="48.06499" lon="6.9943">
        <ele>1065.05</ele>
        <time>2021-05-28T13:21:58Z</time>
      </trkpt>
      <trkpt lat="48.06506" lon="6.99406">
        <ele>1064.77</ele>
        <time>2021-05-28T13:22:18Z</time>
      </trkpt>
      <trkpt lat="48.06509" lon="6.9938">
        <ele>1064.17</ele>
        <time>2021-05-28T13:22:48Z</time>
      </trkpt>
      <trkpt lat="48.06515" lon="6.99355">
        <ele>1064.42</ele>
        <time>2021-05-28T13:23:08Z</time>
      </trkpt>
      <trkpt lat="48.06524" lon="6.99331">
        <ele>1064.12</ele>
        <time>2021-05-28T13:23:27Z</time>
      </trkpt>
      <trkpt lat="48.06533" lon="6.99309">
        <ele>1063.94</ele>
        <time>2021-05-28T13:23:47Z</time>
      </trkpt>
      <trkpt lat="48.06543" lon="6.99284">
        <ele>1064.43</ele>
        <time>2021-05-28T13:24:06Z</time>
      </trkpt>
      <trkpt lat="48.06554" lon="6.99259">
        <ele>1065.5</ele>
        <time>2021-05-28T13:24:25Z</time>
      </trkpt>
      <trkpt lat="48.06567" lon="6.99237">
        <ele>1066.13</ele>
        <time>2021-05-28T13:24:44Z</time>
      </trkpt>
      <trkpt lat="48.06585" lon="6.99224">
        <ele>1067.74</ele>
        <time>2021-05-28T13:25:01Z</time>
      </trkpt>
      <trkpt lat="48.06603" lon="6.99213">
        <ele>1068.67</ele>
        <time>2021-05-28T13:25:21Z</time>
      </trkpt>
      <trkpt lat="48.06624" lon="6.99198">
        <ele>1069.71</ele>
        <time>2021-05-28T13:25:44Z</time>
      </trkpt>
      <trkpt lat="48.06643" lon="6.99175">
        <ele>1071.68</ele>
        <time>2021-05-28T13:26:11Z</time>
      </trkpt>
      <trkpt lat="48.06667" lon="6.99163">
        <ele>1071.94</ele>
        <time>2021-05-28T13:26:32Z</time>
      </trkpt>
      <trkpt lat="48.06693" lon="6.99161">
        <ele>1072.52</ele>
        <time>2021-05-28T13:26:53Z</time>
      </trkpt>
      <trkpt lat="48.06715" lon="6.99162">
        <ele>1072.85</ele>
        <time>2021-05-28T13:27:13Z</time>
      </trkpt>
      <trkpt lat="48.06735" lon="6.99151">
        <ele>1072.7</ele>
        <time>2021-05-28T13:27:32Z</time>
      </trkpt>
      <trkpt lat="48.06749" lon="6.99128">
        <ele>1072.97</ele>
        <time>2021-05-28T13:27:51Z</time>
      </trkpt>
      <trkpt lat="48.06755" lon="6.99098">
        <ele>1075.09</ele>
        <time>2021-05-28T13:28:11Z</time>
      </trkpt>
      <trkpt lat="48.06752" lon="6.99059">
        <ele>1074.44</ele>
        <time>2021-05-28T13:28:36Z</time>
      </trkpt>
      <trkpt lat="48.06749" lon="6.99025">
        <ele>1074.29</ele>
        <time>2021-05-28T13:29:05Z</time>
      </trkpt>
      <trkpt lat="48.06745" lon="6.98975">
        <ele>1073.8</ele>
        <time>2021-05-28T13:29:28Z</time>
      </trkpt>
      <trkpt lat="48.06746" lon="6.98937">
        <ele>1073.93</ele>
        <time>2021-05-28T13:29:51Z</time>
      </trkpt>
      <trkpt lat="48.06743" lon="6.989">
        <ele>1073.65</ele>
        <time>2021-05-28T13:30:14Z</time>
      </trkpt>
      <trkpt lat="48.06739" lon="6.98858">
        <ele>1073.51</ele>
        <time>2021-05-28T13:30:41Z</time>
      </trkpt>
      <trkpt lat="48.06737" lon="6.98816">
        <ele>1068.71</ele>
        <time>2021-05-28T13:31:10Z</time>
      </trkpt>
      <trkpt lat="48.0673" lon="6.98769">
        <ele>1074.12</ele>
        <time>2021-05-28T13:31:38Z</time>
      </trkpt>
      <trkpt lat="48.06728" lon="6.98729">
        <ele>1074.43</ele>
        <time>2021-05-28T13:32:01Z</time>
      </trkpt>
      <trkpt lat="48.06724" lon="6.98693">
        <ele>1074.2</ele>
        <time>2021-05-28T13:32:24Z</time>
      </trkpt>
      <trkpt lat="48.06715" lon="6.98652">
        <ele>1073.81</ele>
        <time>2021-05-28T13:32:51Z</time>
      </trkpt>
      <trkpt lat="48.06703" lon="6.98614">
        <ele>1074.52</ele>
        <time>2021-05-28T13:33:14Z</time>
      </trkpt>
      <trkpt lat="48.06694" lon="6.98575">
        <ele>1075.46</ele>
        <time>2021-05-28T13:33:40Z</time>
      </trkpt>
      <trkpt lat="48.06687" lon="6.9854">
        <ele>1077.12</ele>
        <time>2021-05-28T13:34:01Z</time>
      </trkpt>
      <trkpt lat="48.06682" lon="6.98506">
        <ele>1077.61</ele>
        <time>2021-05-28T13:34:22Z</time>
      </trkpt>
      <trkpt lat="48.06681" lon="6.9847">
        <ele>1076.26</ele>
        <time>2021-05-28T13:34:46Z</time>
      </trkpt>
      <trkpt lat="48.0669" lon="6.98435">
        <ele>1073.43</ele>
        <time>2021-05-28T13:35:08Z</time>
      </trkpt>
      <trkpt lat="48.06704" lon="6.98416">
        <ele>1073.23</ele>
        <time>2021-05-28T13:35:27Z</time>
      </trkpt>
      <trkpt lat="48.06723" lon="6.98397">
        <ele>1072.74</ele>
        <time>2021-05-28T13:35:51Z</time>
      </trkpt>
      <trkpt lat="48.06742" lon="6.98375">
        <ele>1072.5</ele>
        <time>2021-05-28T13:36:12Z</time>
      </trkpt>
      <trkpt lat="48.0676" lon="6.98355">
        <ele>1072.38</ele>
        <time>2021-05-28T13:36:32Z</time>
      </trkpt>
      <trkpt lat="48.06778" lon="6.98338">
        <ele>1070.97</ele>
        <time>2021-05-28T13:36:56Z</time>
      </trkpt>
      <trkpt lat="48.06793" lon="6.98314">
        <ele>1070.56</ele>
        <time>2021-05-28T13:37:16Z</time>
      </trkpt>
      <trkpt lat="48.06812" lon="6.98295">
        <ele>1069.81</ele>
        <time>2021-05-28T13:37:36Z</time>
      </trkpt>
      <trkpt lat="48.06822" lon="6.98266">
        <ele>1069.97</ele>
        <time>2021-05-28T13:37:56Z</time>
      </trkpt>
      <trkpt lat="48.06831" lon="6.98229">
        <ele>1067.65</ele>
        <time>2021-05-28T13:38:18Z</time>
      </trkpt>
      <trkpt lat="48.06835" lon="6.98195">
        <ele>1067.7</ele>
        <time>2021-05-28T13:38:38Z</time>
      </trkpt>
      <trkpt lat="48.06819" lon="6.98189">
        <ele>1067.24</ele>
        <time>2021-05-28T13:39:10Z</time>
      </trkpt>
      <trkpt lat="48.06808" lon="6.982">
        <ele>1065.69</ele>
        <time>2021-05-28T13:39:57Z</time>
      </trkpt>
      <trkpt lat="48.06801" lon="6.98197">
        <ele>1065.98</ele>
        <time>2021-05-28T13:40:55Z</time>
      </trkpt>
      <trkpt lat="48.0679" lon="6.98223">
        <ele>1064.6</ele>
        <time>2021-05-28T13:41:23Z</time>
      </trkpt>
      <trkpt lat="48.0677" lon="6.98249">
        <ele>1063.23</ele>
        <time>2021-05-28T13:41:47Z</time>
      </trkpt>
      <trkpt lat="48.06753" lon="6.98269">
        <ele>1064.13</ele>
        <time>2021-05-28T13:42:14Z</time>
      </trkpt>
      <trkpt lat="48.06734" lon="6.98285">
        <ele>1062.29</ele>
        <time>2021-05-28T13:42:39Z</time>
      </trkpt>
      <trkpt lat="48.06713" lon="6.98297">
        <ele>1059.48</ele>
        <time>2021-05-28T13:43:04Z</time>
      </trkpt>
      <trkpt lat="48.06688" lon="6.98305">
        <ele>1057.87</ele>
        <time>2021-05-28T13:43:31Z</time>
      </trkpt>
      <trkpt lat="48.06667" lon="6.98319">
        <ele>1055.37</ele>
        <time>2021-05-28T13:43:56Z</time>
      </trkpt>
      <trkpt lat="48.06645" lon="6.98344">
        <ele>1053.77</ele>
        <time>2021-05-28T13:44:23Z</time>
      </trkpt>
      <trkpt lat="48.06618" lon="6.98351">
        <ele>1052.5</ele>
        <time>2021-05-28T13:44:48Z</time>
      </trkpt>
      <trkpt lat="48.06594" lon="6.98334">
        <ele>1050.94</ele>
        <time>2021-05-28T13:45:10Z</time>
      </trkpt>
      <trkpt lat="48.06576" lon="6.98309">
        <ele>1048.88</ele>
        <time>2021-05-28T13:45:33Z</time>
      </trkpt>
      <trkpt lat="48.06559" lon="6.98284">
        <ele>1046.86</ele>
        <time>2021-05-28T13:46:01Z</time>
      </trkpt>
      <trkpt lat="48.06539" lon="6.98252">
        <ele>1046.02</ele>
        <time>2021-05-28T13:46:25Z</time>
      </trkpt>
      <trkpt lat="48.06518" lon="6.98238">
        <ele>1044.13</ele>
        <time>2021-05-28T13:46:49Z</time>
      </trkpt>
      <trkpt lat="48.06495" lon="6.9823">
        <ele>1042.37</ele>
        <time>2021-05-28T13:47:15Z</time>
      </trkpt>
      <trkpt lat="48.06471" lon="6.98217">
        <ele>1039.87</ele>
        <time>2021-05-28T13:47:42Z</time>
      </trkpt>
      <trkpt lat="48.06448" lon="6.98226">
        <ele>1038.08</ele>
        <time>2021-05-28T13:48:14Z</time>
      </trkpt>
      <trkpt lat="48.06441" lon="6.98222">
        <ele>1038.07</ele>
        <time>2021-05-28T13:49:16Z</time>
      </trkpt>
      <trkpt lat="48.06442" lon="6.98226">
        <ele>1038.33</ele>
        <time>2021-05-28T13:50:09Z</time>
      </trkpt>
      <trkpt lat="48.06443" lon="6.98221">
        <ele>1038.43</ele>
        <time>2021-05-28T13:51:14Z</time>
      </trkpt>
      <trkpt lat="48.06414" lon="6.98242">
        <ele>1036.17</ele>
        <time>2021-05-28T13:51:54Z</time>
      </trkpt>
      <trkpt lat="48.06397" lon="6.9828">
        <ele>1034.36</ele>
        <time>2021-05-28T13:52:25Z</time>
      </trkpt>
      <trkpt lat="48.06368" lon="6.98307">
        <ele>1032.81</ele>
        <time>2021-05-28T13:52:53Z</time>
      </trkpt>
      <trkpt lat="48.06342" lon="6.98302">
        <ele>1030.87</ele>
        <time>2021-05-28T13:53:19Z</time>
      </trkpt>
      <trkpt lat="48.06319" lon="6.98303">
        <ele>1029.7</ele>
        <time>2021-05-28T13:53:43Z</time>
      </trkpt>
      <trkpt lat="48.06318" lon="6.98293">
        <ele>1030.25</ele>
        <time>2021-05-28T13:54:47Z</time>
      </trkpt>
      <trkpt lat="48.06337" lon="6.98295">
        <ele>1030.87</ele>
        <time>2021-05-28T13:55:17Z</time>
      </trkpt>
      <trkpt lat="48.06353" lon="6.98305">
        <ele>1032.48</ele>
        <time>2021-05-28T13:56:08Z</time>
      </trkpt>
      <trkpt lat="48.0636" lon="6.98307">
        <ele>1032.21</ele>
        <time>2021-05-28T13:57:12Z</time>
      </trkpt>
      <trkpt lat="48.06356" lon="6.98299">
        <ele>1032.11</ele>
        <time>2021-05-28T13:58:22Z</time>
      </trkpt>
      <trkpt lat="48.06358" lon="6.98307">
        <ele>1031.44</ele>
        <time>2021-05-28T13:59:12Z</time>
      </trkpt>
      <trkpt lat="48.0634" lon="6.98296">
        <ele>1030.89</ele>
        <time>2021-05-28T13:59:56Z</time>
      </trkpt>
      <trkpt lat="48.06319" lon="6.98296">
        <ele>1030.39</ele>
        <time>2021-05-28T14:00:35Z</time>
      </trkpt>
      <trkpt lat="48.06297" lon="6.98299">
        <ele>1028.76</ele>
        <time>2021-05-28T14:01:03Z</time>
      </trkpt>
      <trkpt lat="48.06279" lon="6.98319">
        <ele>1026.87</ele>
        <time>2021-05-28T14:01:38Z</time>
      </trkpt>
      <trkpt lat="48.06264" lon="6.98338">
        <ele>1026</ele>
        <time>2021-05-28T14:02:42Z</time>
      </trkpt>
      <trkpt lat="48.06258" lon="6.98362">
        <ele>1022.63</ele>
        <time>2021-05-28T14:04:07Z</time>
      </trkpt>
      <trkpt lat="48.06254" lon="6.98389">
        <ele>1022.9</ele>
        <time>2021-05-28T14:04:59Z</time>
      </trkpt>
      <trkpt lat="48.0625" lon="6.98422">
        <ele>1019.46</ele>
        <time>2021-05-28T14:05:43Z</time>
      </trkpt>
      <trkpt lat="48.06234" lon="6.98455">
        <ele>1017.53</ele>
        <time>2021-05-28T14:06:14Z</time>
      </trkpt>
      <trkpt lat="48.06217" lon="6.98484">
        <ele>1014.2</ele>
        <time>2021-05-28T14:06:41Z</time>
      </trkpt>
      <trkpt lat="48.06217" lon="6.98516">
        <ele>1011.48</ele>
        <time>2021-05-28T14:07:10Z</time>
      </trkpt>
      <trkpt lat="48.06222" lon="6.98555">
        <ele>1009.93</ele>
        <time>2021-05-28T14:07:42Z</time>
      </trkpt>
      <trkpt lat="48.06227" lon="6.98584">
        <ele>1008.08</ele>
        <time>2021-05-28T14:08:30Z</time>
      </trkpt>
      <trkpt lat="48.06232" lon="6.98615">
        <ele>1006.43</ele>
        <time>2021-05-28T14:09:12Z</time>
      </trkpt>
      <trkpt lat="48.06233" lon="6.98623">
        <ele>1005.05</ele>
        <time>2021-05-28T14:09:52Z</time>
      </trkpt>
      <trkpt lat="48.06247" lon="6.98626">
        <ele>1001.71</ele>
        <time>2021-05-28T14:10:40Z</time>
      </trkpt>
      <trkpt lat="48.06253" lon="6.98637">
        <ele>998.89</ele>
        <time>2021-05-28T14:11:29Z</time>
      </trkpt>
      <trkpt lat="48.06234" lon="6.98638">
        <ele>997.42</ele>
        <time>2021-05-28T14:12:03Z</time>
      </trkpt>
      <trkpt lat="48.06211" lon="6.98623">
        <ele>996.99</ele>
        <time>2021-05-28T14:12:24Z</time>
      </trkpt>
      <trkpt lat="48.06201" lon="6.98591">
        <ele>994.75</ele>
        <time>2021-05-28T14:12:43Z</time>
      </trkpt>
      <trkpt lat="48.06198" lon="6.98559">
        <ele>993.13</ele>
        <time>2021-05-28T14:13:03Z</time>
      </trkpt>
      <trkpt lat="48.06191" lon="6.98531">
        <ele>991.88</ele>
        <time>2021-05-28T14:13:22Z</time>
      </trkpt>
      <trkpt lat="48.06186" lon="6.98501">
        <ele>990.54</ele>
        <time>2021-05-28T14:13:41Z</time>
      </trkpt>
      <trkpt lat="48.06183" lon="6.98472">
        <ele>989.3</ele>
        <time>2021-05-28T14:14:02Z</time>
      </trkpt>
      <trkpt lat="48.06183" lon="6.98453">
        <ele>988.34</ele>
        <time>2021-05-28T14:14:40Z</time>
      </trkpt>
      <trkpt lat="48.06176" lon="6.98478">
        <ele>985.3</ele>
        <time>2021-05-28T14:15:20Z</time>
      </trkpt>
      <trkpt lat="48.06185" lon="6.98513">
        <ele>982.41</ele>
        <time>2021-05-28T14:15:47Z</time>
      </trkpt>
      <trkpt lat="48.06186" lon="6.98546">
        <ele>981.81</ele>
        <time>2021-05-28T14:16:21Z</time>
      </trkpt>
      <trkpt lat="48.06181" lon="6.98531">
        <ele>977.66</ele>
        <time>2021-05-28T14:17:39Z</time>
      </trkpt>
      <trkpt lat="48.06173" lon="6.98548">
        <ele>968.42</ele>
        <time>2021-05-28T14:18:36Z</time>
      </trkpt>
      <trkpt lat="48.06162" lon="6.98583">
        <ele>962.53</ele>
        <time>2021-05-28T14:19:09Z</time>
      </trkpt>
      <trkpt lat="48.06159" lon="6.98619">
        <ele>958.31</ele>
        <time>2021-05-28T14:19:42Z</time>
      </trkpt>
      <trkpt lat="48.06153" lon="6.98659">
        <ele>952.04</ele>
        <time>2021-05-28T14:20:25Z</time>
      </trkpt>
      <trkpt lat="48.06169" lon="6.98689">
        <ele>945.88</ele>
        <time>2021-05-28T14:21:02Z</time>
      </trkpt>
      <trkpt lat="48.06151" lon="6.98699">
        <ele>939.31</ele>
        <time>2021-05-28T14:21:36Z</time>
      </trkpt>
      <trkpt lat="48.06124" lon="6.98689">
        <ele>934.29</ele>
        <time>2021-05-28T14:22:12Z</time>
      </trkpt>
      <trkpt lat="48.06106" lon="6.98659">
        <ele>929.32</ele>
        <time>2021-05-28T14:22:52Z</time>
      </trkpt>
      <trkpt lat="48.06103" lon="6.98628">
        <ele>924.84</ele>
        <time>2021-05-28T14:23:26Z</time>
      </trkpt>
      <trkpt lat="48.06091" lon="6.9859">
        <ele>918.84</ele>
        <time>2021-05-28T14:24:01Z</time>
      </trkpt>
      <trkpt lat="48.06086" lon="6.98561">
        <ele>914.4</ele>
        <time>2021-05-28T14:24:36Z</time>
      </trkpt>
      <trkpt lat="48.06079" lon="6.98571">
        <ele>909.37</ele>
        <time>2021-05-28T14:25:36Z</time>
      </trkpt>
      <trkpt lat="48.06071" lon="6.98584">
        <ele>906.36</ele>
        <time>2021-05-28T14:26:25Z</time>
      </trkpt>
      <trkpt lat="48.06068" lon="6.98616">
        <ele>904.08</ele>
        <time>2021-05-28T14:27:00Z</time>
      </trkpt>
      <trkpt lat="48.06052" lon="6.98639">
        <ele>897.72</ele>
        <time>2021-05-28T14:27:32Z</time>
      </trkpt>
      <trkpt lat="48.06045" lon="6.98676">
        <ele>892.75</ele>
        <time>2021-05-28T14:28:07Z</time>
      </trkpt>
      <trkpt lat="48.06041" lon="6.98692">
        <ele>891.61</ele>
        <time>2021-05-28T14:29:21Z</time>
      </trkpt>
      <trkpt lat="48.06045" lon="6.98713">
        <ele>887.53</ele>
        <time>2021-05-28T14:30:04Z</time>
      </trkpt>
      <trkpt lat="48.06049" lon="6.98745">
        <ele>882.48</ele>
        <time>2021-05-28T14:30:38Z</time>
      </trkpt>
      <trkpt lat="48.06041" lon="6.9875">
        <ele>874.29</ele>
        <time>2021-05-28T14:31:21Z</time>
      </trkpt>
      <trkpt lat="48.06025" lon="6.9876">
        <ele>868.02</ele>
        <time>2021-05-28T14:32:10Z</time>
      </trkpt>
      <trkpt lat="48.06007" lon="6.98762">
        <ele>861.08</ele>
        <time>2021-05-28T14:32:54Z</time>
      </trkpt>
      <trkpt lat="48.05991" lon="6.98753">
        <ele>853.85</ele>
        <time>2021-05-28T14:33:54Z</time>
      </trkpt>
      <trkpt lat="48.05972" lon="6.98739">
        <ele>847.04</ele>
        <time>2021-05-28T14:34:42Z</time>
      </trkpt>
      <trkpt lat="48.05961" lon="6.98723">
        <ele>840.5</ele>
        <time>2021-05-28T14:35:27Z</time>
      </trkpt>
      <trkpt lat="48.05943" lon="6.98707">
        <ele>833.76</ele>
        <time>2021-05-28T14:36:07Z</time>
      </trkpt>
      <trkpt lat="48.05938" lon="6.98681">
        <ele>827.68</ele>
        <time>2021-05-28T14:36:48Z</time>
      </trkpt>
      <trkpt lat="48.05924" lon="6.98678">
        <ele>823.13</ele>
        <time>2021-05-28T14:37:39Z</time>
      </trkpt>
      <trkpt lat="48.05918" lon="6.98648">
        <ele>819.07</ele>
        <time>2021-05-28T14:38:11Z</time>
      </trkpt>
      <trkpt lat="48.05911" lon="6.98627">
        <ele>816.24</ele>
        <time>2021-05-28T14:38:58Z</time>
      </trkpt>
      <trkpt lat="48.05894" lon="6.98603">
        <ele>810.23</ele>
        <time>2021-05-28T14:39:35Z</time>
      </trkpt>
      <trkpt lat="48.0588" lon="6.98581">
        <ele>804.47</ele>
        <time>2021-05-28T14:40:16Z</time>
      </trkpt>
      <trkpt lat="48.05866" lon="6.98559">
        <ele>801.88</ele>
        <time>2021-05-28T14:40:51Z</time>
      </trkpt>
      <trkpt lat="48.05847" lon="6.98551">
        <ele>797.94</ele>
        <time>2021-05-28T14:41:29Z</time>
      </trkpt>
      <trkpt lat="48.05833" lon="6.98558">
        <ele>796.51</ele>
        <time>2021-05-28T14:42:00Z</time>
      </trkpt>
    </trkseg>
  </trk>
</gpx>